<?xml version="1.0" encoding="UTF-8" standalone="no" ?>
<gpx xmlns="http://www.topografix.com/GPX/1/1" xmlns:xsi="http://www.w3.org/2001/XMLSchema-instance" xsi:schemaLocation="http://www.topografix.com/GPX/1/1 http://www.topografix.com/GPX/1/1/gpx.xsd" version="1.1" creator="VisuGPX - https://www.visugpx.com">
  <metadata>
    <name>autour de la chapelle d aurec</name>
    <desc><![CDATA[très belle balade de JO et JP à faire dans le sens des aiguilles d une montre parcours avec de bons galops belle vue sur la loire possible de se baigner assez vallonnée]]></desc>
  </metadata>
  <trk>
    <name><![CDATA[15-SEPT-15 06:13:58 PM]]></name>
    <trkseg>
      <trkpt lat="45.32612" lon="4.18175">
        <ele>551.93</ele>
        <time>2015-09-15T12:54:14Z</time>
      </trkpt>
      <trkpt lat="45.32612" lon="4.18176">
        <ele>552.9</ele>
        <time>2015-09-15T12:54:35Z</time>
      </trkpt>
      <trkpt lat="45.32611" lon="4.18176">
        <ele>552.41</ele>
        <time>2015-09-15T12:54:53Z</time>
      </trkpt>
      <trkpt lat="45.32612" lon="4.18176">
        <ele>551.93</ele>
        <time>2015-09-15T12:55:10Z</time>
      </trkpt>
      <trkpt lat="45.32607" lon="4.18182">
        <ele>551.45</ele>
        <time>2015-09-15T12:55:24Z</time>
      </trkpt>
      <trkpt lat="45.32604" lon="4.18181">
        <ele>551.93</ele>
        <time>2015-09-15T12:55:37Z</time>
      </trkpt>
      <trkpt lat="45.32602" lon="4.18181">
        <ele>551.93</ele>
        <time>2015-09-15T12:55:53Z</time>
      </trkpt>
      <trkpt lat="45.326" lon="4.18182">
        <ele>551.93</ele>
        <time>2015-09-15T12:55:55Z</time>
      </trkpt>
      <trkpt lat="45.3257" lon="4.18188">
        <ele>550.49</ele>
        <time>2015-09-15T12:56:20Z</time>
      </trkpt>
      <trkpt lat="45.32544" lon="4.18197">
        <ele>551.93</ele>
        <time>2015-09-15T12:56:39Z</time>
      </trkpt>
      <trkpt lat="45.32529" lon="4.18208">
        <ele>550.97</ele>
        <time>2015-09-15T12:56:51Z</time>
      </trkpt>
      <trkpt lat="45.32514" lon="4.18254">
        <ele>550.49</ele>
        <time>2015-09-15T12:57:16Z</time>
      </trkpt>
      <trkpt lat="45.3251" lon="4.18264">
        <ele>550.01</ele>
        <time>2015-09-15T12:57:22Z</time>
      </trkpt>
      <trkpt lat="45.32505" lon="4.18277">
        <ele>550.01</ele>
        <time>2015-09-15T12:57:29Z</time>
      </trkpt>
      <trkpt lat="45.32506" lon="4.18315">
        <ele>552.9</ele>
        <time>2015-09-15T12:57:51Z</time>
      </trkpt>
      <trkpt lat="45.32501" lon="4.18338">
        <ele>558.66</ele>
        <time>2015-09-15T12:58:05Z</time>
      </trkpt>
      <trkpt lat="45.32503" lon="4.18346">
        <ele>560.59</ele>
        <time>2015-09-15T12:58:11Z</time>
      </trkpt>
      <trkpt lat="45.32509" lon="4.18347">
        <ele>561.55</ele>
        <time>2015-09-15T12:58:16Z</time>
      </trkpt>
      <trkpt lat="45.32513" lon="4.18365">
        <ele>565.87</ele>
        <time>2015-09-15T12:58:33Z</time>
      </trkpt>
      <trkpt lat="45.32509" lon="4.18374">
        <ele>566.35</ele>
        <time>2015-09-15T12:58:39Z</time>
      </trkpt>
      <trkpt lat="45.32512" lon="4.18395">
        <ele>568.76</ele>
        <time>2015-09-15T12:58:53Z</time>
      </trkpt>
      <trkpt lat="45.32526" lon="4.18401">
        <ele>572.6</ele>
        <time>2015-09-15T12:59:07Z</time>
      </trkpt>
      <trkpt lat="45.3253" lon="4.18407">
        <ele>573.56</ele>
        <time>2015-09-15T12:59:13Z</time>
      </trkpt>
      <trkpt lat="45.32542" lon="4.18443">
        <ele>571.16</ele>
        <time>2015-09-15T12:59:31Z</time>
      </trkpt>
      <trkpt lat="45.32556" lon="4.18472">
        <ele>570.68</ele>
        <time>2015-09-15T12:59:49Z</time>
      </trkpt>
      <trkpt lat="45.32563" lon="4.18479">
        <ele>571.16</ele>
        <time>2015-09-15T13:00:00Z</time>
      </trkpt>
      <trkpt lat="45.32575" lon="4.18494">
        <ele>573.08</ele>
        <time>2015-09-15T13:00:18Z</time>
      </trkpt>
      <trkpt lat="45.32574" lon="4.18495">
        <ele>572.6</ele>
        <time>2015-09-15T13:00:30Z</time>
      </trkpt>
      <trkpt lat="45.32584" lon="4.18525">
        <ele>572.12</ele>
        <time>2015-09-15T13:00:50Z</time>
      </trkpt>
      <trkpt lat="45.32588" lon="4.18532">
        <ele>571.64</ele>
        <time>2015-09-15T13:00:55Z</time>
      </trkpt>
      <trkpt lat="45.32608" lon="4.18564">
        <ele>571.64</ele>
        <time>2015-09-15T13:01:18Z</time>
      </trkpt>
      <trkpt lat="45.32627" lon="4.18594">
        <ele>573.56</ele>
        <time>2015-09-15T13:01:37Z</time>
      </trkpt>
      <trkpt lat="45.32647" lon="4.18611">
        <ele>576.93</ele>
        <time>2015-09-15T13:01:54Z</time>
      </trkpt>
      <trkpt lat="45.3265" lon="4.1861">
        <ele>577.41</ele>
        <time>2015-09-15T13:01:57Z</time>
      </trkpt>
      <trkpt lat="45.32673" lon="4.18609">
        <ele>581.73</ele>
        <time>2015-09-15T13:02:16Z</time>
      </trkpt>
      <trkpt lat="45.32677" lon="4.18609">
        <ele>582.7</ele>
        <time>2015-09-15T13:02:20Z</time>
      </trkpt>
      <trkpt lat="45.32696" lon="4.18613">
        <ele>585.1</ele>
        <time>2015-09-15T13:02:37Z</time>
      </trkpt>
      <trkpt lat="45.32718" lon="4.18631">
        <ele>586.54</ele>
        <time>2015-09-15T13:02:56Z</time>
      </trkpt>
      <trkpt lat="45.32729" lon="4.18654">
        <ele>587.02</ele>
        <time>2015-09-15T13:03:14Z</time>
      </trkpt>
      <trkpt lat="45.32733" lon="4.18675">
        <ele>586.54</ele>
        <time>2015-09-15T13:03:27Z</time>
      </trkpt>
      <trkpt lat="45.32739" lon="4.18703">
        <ele>589.43</ele>
        <time>2015-09-15T13:03:47Z</time>
      </trkpt>
      <trkpt lat="45.32739" lon="4.18725">
        <ele>592.79</ele>
        <time>2015-09-15T13:04:04Z</time>
      </trkpt>
      <trkpt lat="45.32733" lon="4.1876">
        <ele>594.71</ele>
        <time>2015-09-15T13:04:24Z</time>
      </trkpt>
      <trkpt lat="45.32729" lon="4.18778">
        <ele>601.92</ele>
        <time>2015-09-15T13:04:36Z</time>
      </trkpt>
      <trkpt lat="45.32726" lon="4.18798">
        <ele>603.85</ele>
        <time>2015-09-15T13:04:49Z</time>
      </trkpt>
      <trkpt lat="45.32728" lon="4.18824">
        <ele>603.85</ele>
        <time>2015-09-15T13:05:03Z</time>
      </trkpt>
      <trkpt lat="45.32735" lon="4.18858">
        <ele>603.85</ele>
        <time>2015-09-15T13:05:23Z</time>
      </trkpt>
      <trkpt lat="45.32732" lon="4.18875">
        <ele>604.81</ele>
        <time>2015-09-15T13:05:35Z</time>
      </trkpt>
      <trkpt lat="45.32726" lon="4.18917">
        <ele>605.77</ele>
        <time>2015-09-15T13:05:55Z</time>
      </trkpt>
      <trkpt lat="45.32725" lon="4.18958">
        <ele>605.29</ele>
        <time>2015-09-15T13:06:15Z</time>
      </trkpt>
      <trkpt lat="45.32726" lon="4.19">
        <ele>606.73</ele>
        <time>2015-09-15T13:06:34Z</time>
      </trkpt>
      <trkpt lat="45.32726" lon="4.19034">
        <ele>606.25</ele>
        <time>2015-09-15T13:06:51Z</time>
      </trkpt>
      <trkpt lat="45.32726" lon="4.19071">
        <ele>605.77</ele>
        <time>2015-09-15T13:07:09Z</time>
      </trkpt>
      <trkpt lat="45.32726" lon="4.19106">
        <ele>605.77</ele>
        <time>2015-09-15T13:07:27Z</time>
      </trkpt>
      <trkpt lat="45.32722" lon="4.19144">
        <ele>607.69</ele>
        <time>2015-09-15T13:07:46Z</time>
      </trkpt>
      <trkpt lat="45.32714" lon="4.1918">
        <ele>609.13</ele>
        <time>2015-09-15T13:08:04Z</time>
      </trkpt>
      <trkpt lat="45.32707" lon="4.19215">
        <ele>608.65</ele>
        <time>2015-09-15T13:08:15Z</time>
      </trkpt>
      <trkpt lat="45.32702" lon="4.19307">
        <ele>607.21</ele>
        <time>2015-09-15T13:08:26Z</time>
      </trkpt>
      <trkpt lat="45.32699" lon="4.1943">
        <ele>608.17</ele>
        <time>2015-09-15T13:08:40Z</time>
      </trkpt>
      <trkpt lat="45.32693" lon="4.19517">
        <ele>614.42</ele>
        <time>2015-09-15T13:08:53Z</time>
      </trkpt>
      <trkpt lat="45.32691" lon="4.1954">
        <ele>617.3</ele>
        <time>2015-09-15T13:09:08Z</time>
      </trkpt>
      <trkpt lat="45.32686" lon="4.19567">
        <ele>618.75</ele>
        <time>2015-09-15T13:09:22Z</time>
      </trkpt>
      <trkpt lat="45.3269" lon="4.19575">
        <ele>619.71</ele>
        <time>2015-09-15T13:09:32Z</time>
      </trkpt>
      <trkpt lat="45.32691" lon="4.19576">
        <ele>620.19</ele>
        <time>2015-09-15T13:09:49Z</time>
      </trkpt>
      <trkpt lat="45.3269" lon="4.1961">
        <ele>620.19</ele>
        <time>2015-09-15T13:10:04Z</time>
      </trkpt>
      <trkpt lat="45.32696" lon="4.19636">
        <ele>622.59</ele>
        <time>2015-09-15T13:10:17Z</time>
      </trkpt>
      <trkpt lat="45.32689" lon="4.1964">
        <ele>622.59</ele>
        <time>2015-09-15T13:10:23Z</time>
      </trkpt>
      <trkpt lat="45.32667" lon="4.19669">
        <ele>621.63</ele>
        <time>2015-09-15T13:10:42Z</time>
      </trkpt>
      <trkpt lat="45.32655" lon="4.19697">
        <ele>621.63</ele>
        <time>2015-09-15T13:11:01Z</time>
      </trkpt>
      <trkpt lat="45.32645" lon="4.19724">
        <ele>623.07</ele>
        <time>2015-09-15T13:11:16Z</time>
      </trkpt>
      <trkpt lat="45.32645" lon="4.1976">
        <ele>623.07</ele>
        <time>2015-09-15T13:11:34Z</time>
      </trkpt>
      <trkpt lat="45.32651" lon="4.19783">
        <ele>622.59</ele>
        <time>2015-09-15T13:11:50Z</time>
      </trkpt>
      <trkpt lat="45.3265" lon="4.19775">
        <ele>622.11</ele>
        <time>2015-09-15T13:12:00Z</time>
      </trkpt>
      <trkpt lat="45.32652" lon="4.1978">
        <ele>622.59</ele>
        <time>2015-09-15T13:12:13Z</time>
      </trkpt>
      <trkpt lat="45.32652" lon="4.1978">
        <ele>622.59</ele>
        <time>2015-09-15T13:12:14Z</time>
      </trkpt>
      <trkpt lat="45.32647" lon="4.1977">
        <ele>621.15</ele>
        <time>2015-09-15T13:12:25Z</time>
      </trkpt>
      <trkpt lat="45.32656" lon="4.19795">
        <ele>619.23</ele>
        <time>2015-09-15T13:12:44Z</time>
      </trkpt>
      <trkpt lat="45.32648" lon="4.19835">
        <ele>617.3</ele>
        <time>2015-09-15T13:13:06Z</time>
      </trkpt>
      <trkpt lat="45.32648" lon="4.19878">
        <ele>621.15</ele>
        <time>2015-09-15T13:13:27Z</time>
      </trkpt>
      <trkpt lat="45.32639" lon="4.19903">
        <ele>624.51</ele>
        <time>2015-09-15T13:13:45Z</time>
      </trkpt>
      <trkpt lat="45.3264" lon="4.19894">
        <ele>624.99</ele>
        <time>2015-09-15T13:13:58Z</time>
      </trkpt>
      <trkpt lat="45.32637" lon="4.19922">
        <ele>624.99</ele>
        <time>2015-09-15T13:14:16Z</time>
      </trkpt>
      <trkpt lat="45.32635" lon="4.1997">
        <ele>623.55</ele>
        <time>2015-09-15T13:14:38Z</time>
      </trkpt>
      <trkpt lat="45.32635" lon="4.19982">
        <ele>626.92</ele>
        <time>2015-09-15T13:14:42Z</time>
      </trkpt>
      <trkpt lat="45.32641" lon="4.19997">
        <ele>632.2</ele>
        <time>2015-09-15T13:14:51Z</time>
      </trkpt>
      <trkpt lat="45.32642" lon="4.2003">
        <ele>630.28</ele>
        <time>2015-09-15T13:15:09Z</time>
      </trkpt>
      <trkpt lat="45.32641" lon="4.20066">
        <ele>630.28</ele>
        <time>2015-09-15T13:15:29Z</time>
      </trkpt>
      <trkpt lat="45.32637" lon="4.20091">
        <ele>637.97</ele>
        <time>2015-09-15T13:15:45Z</time>
      </trkpt>
      <trkpt lat="45.32642" lon="4.20112">
        <ele>638.93</ele>
        <time>2015-09-15T13:16:01Z</time>
      </trkpt>
      <trkpt lat="45.32643" lon="4.20114">
        <ele>638.93</ele>
        <time>2015-09-15T13:16:03Z</time>
      </trkpt>
      <trkpt lat="45.32655" lon="4.20132">
        <ele>644.7</ele>
        <time>2015-09-15T13:16:20Z</time>
      </trkpt>
      <trkpt lat="45.32662" lon="4.20157">
        <ele>649.03</ele>
        <time>2015-09-15T13:16:39Z</time>
      </trkpt>
      <trkpt lat="45.32666" lon="4.20185">
        <ele>648.55</ele>
        <time>2015-09-15T13:16:59Z</time>
      </trkpt>
      <trkpt lat="45.32686" lon="4.20204">
        <ele>651.91</ele>
        <time>2015-09-15T13:17:20Z</time>
      </trkpt>
      <trkpt lat="45.32687" lon="4.20204">
        <ele>652.39</ele>
        <time>2015-09-15T13:17:22Z</time>
      </trkpt>
      <trkpt lat="45.32714" lon="4.20214">
        <ele>659.12</ele>
        <time>2015-09-15T13:17:45Z</time>
      </trkpt>
      <trkpt lat="45.32719" lon="4.20221">
        <ele>658.64</ele>
        <time>2015-09-15T13:17:51Z</time>
      </trkpt>
      <trkpt lat="45.32737" lon="4.20235">
        <ele>660.56</ele>
        <time>2015-09-15T13:18:05Z</time>
      </trkpt>
      <trkpt lat="45.32764" lon="4.20259">
        <ele>664.89</ele>
        <time>2015-09-15T13:18:29Z</time>
      </trkpt>
      <trkpt lat="45.32788" lon="4.20283">
        <ele>663.93</ele>
        <time>2015-09-15T13:18:48Z</time>
      </trkpt>
      <trkpt lat="45.328" lon="4.20328">
        <ele>660.56</ele>
        <time>2015-09-15T13:19:03Z</time>
      </trkpt>
      <trkpt lat="45.32797" lon="4.20385">
        <ele>656.72</ele>
        <time>2015-09-15T13:19:14Z</time>
      </trkpt>
      <trkpt lat="45.32783" lon="4.20434">
        <ele>653.83</ele>
        <time>2015-09-15T13:19:24Z</time>
      </trkpt>
      <trkpt lat="45.32778" lon="4.2045">
        <ele>654.31</ele>
        <time>2015-09-15T13:19:27Z</time>
      </trkpt>
      <trkpt lat="45.3275" lon="4.20558">
        <ele>658.64</ele>
        <time>2015-09-15T13:19:43Z</time>
      </trkpt>
      <trkpt lat="45.32745" lon="4.20577">
        <ele>659.12</ele>
        <time>2015-09-15T13:19:46Z</time>
      </trkpt>
      <trkpt lat="45.32736" lon="4.20616">
        <ele>659.12</ele>
        <time>2015-09-15T13:19:54Z</time>
      </trkpt>
      <trkpt lat="45.32762" lon="4.20643">
        <ele>659.6</ele>
        <time>2015-09-15T13:20:01Z</time>
      </trkpt>
      <trkpt lat="45.32845" lon="4.20609">
        <ele>659.6</ele>
        <time>2015-09-15T13:20:14Z</time>
      </trkpt>
      <trkpt lat="45.32911" lon="4.20585">
        <ele>661.52</ele>
        <time>2015-09-15T13:20:25Z</time>
      </trkpt>
      <trkpt lat="45.33009" lon="4.20593">
        <ele>663.45</ele>
        <time>2015-09-15T13:20:40Z</time>
      </trkpt>
      <trkpt lat="45.33071" lon="4.2062">
        <ele>662.97</ele>
        <time>2015-09-15T13:20:53Z</time>
      </trkpt>
      <trkpt lat="45.33062" lon="4.20642">
        <ele>662.97</ele>
        <time>2015-09-15T13:21:05Z</time>
      </trkpt>
      <trkpt lat="45.33042" lon="4.2067">
        <ele>661.52</ele>
        <time>2015-09-15T13:21:23Z</time>
      </trkpt>
      <trkpt lat="45.33037" lon="4.20685">
        <ele>661.52</ele>
        <time>2015-09-15T13:21:30Z</time>
      </trkpt>
      <trkpt lat="45.33046" lon="4.20718">
        <ele>661.04</ele>
        <time>2015-09-15T13:21:49Z</time>
      </trkpt>
      <trkpt lat="45.33057" lon="4.20722">
        <ele>662.97</ele>
        <time>2015-09-15T13:21:58Z</time>
      </trkpt>
      <trkpt lat="45.33064" lon="4.20725">
        <ele>662.97</ele>
        <time>2015-09-15T13:22:03Z</time>
      </trkpt>
      <trkpt lat="45.33074" lon="4.20741">
        <ele>662.97</ele>
        <time>2015-09-15T13:22:13Z</time>
      </trkpt>
      <trkpt lat="45.33075" lon="4.20774">
        <ele>659.6</ele>
        <time>2015-09-15T13:22:29Z</time>
      </trkpt>
      <trkpt lat="45.33094" lon="4.20805">
        <ele>659.6</ele>
        <time>2015-09-15T13:22:51Z</time>
      </trkpt>
      <trkpt lat="45.33116" lon="4.20838">
        <ele>659.6</ele>
        <time>2015-09-15T13:23:12Z</time>
      </trkpt>
      <trkpt lat="45.33117" lon="4.20847">
        <ele>658.64</ele>
        <time>2015-09-15T13:23:17Z</time>
      </trkpt>
      <trkpt lat="45.33116" lon="4.2085">
        <ele>658.16</ele>
        <time>2015-09-15T13:23:19Z</time>
      </trkpt>
      <trkpt lat="45.33109" lon="4.20855">
        <ele>655.76</ele>
        <time>2015-09-15T13:23:25Z</time>
      </trkpt>
      <trkpt lat="45.33085" lon="4.20832">
        <ele>655.76</ele>
        <time>2015-09-15T13:23:44Z</time>
      </trkpt>
      <trkpt lat="45.3306" lon="4.20806">
        <ele>661.52</ele>
        <time>2015-09-15T13:24:06Z</time>
      </trkpt>
      <trkpt lat="45.33039" lon="4.20787">
        <ele>664.41</ele>
        <time>2015-09-15T13:24:20Z</time>
      </trkpt>
      <trkpt lat="45.33023" lon="4.20769">
        <ele>667.29</ele>
        <time>2015-09-15T13:24:40Z</time>
      </trkpt>
      <trkpt lat="45.33009" lon="4.20743">
        <ele>675.46</ele>
        <time>2015-09-15T13:24:58Z</time>
      </trkpt>
      <trkpt lat="45.32991" lon="4.20716">
        <ele>680.27</ele>
        <time>2015-09-15T13:25:13Z</time>
      </trkpt>
      <trkpt lat="45.32976" lon="4.20688">
        <ele>681.23</ele>
        <time>2015-09-15T13:25:32Z</time>
      </trkpt>
      <trkpt lat="45.32953" lon="4.20676">
        <ele>682.19</ele>
        <time>2015-09-15T13:25:50Z</time>
      </trkpt>
      <trkpt lat="45.32928" lon="4.20664">
        <ele>682.19</ele>
        <time>2015-09-15T13:26:09Z</time>
      </trkpt>
      <trkpt lat="45.32904" lon="4.20659">
        <ele>680.75</ele>
        <time>2015-09-15T13:26:28Z</time>
      </trkpt>
      <trkpt lat="45.32881" lon="4.20664">
        <ele>681.23</ele>
        <time>2015-09-15T13:26:45Z</time>
      </trkpt>
      <trkpt lat="45.32871" lon="4.20668">
        <ele>679.79</ele>
        <time>2015-09-15T13:26:55Z</time>
      </trkpt>
      <trkpt lat="45.32833" lon="4.20684">
        <ele>678.35</ele>
        <time>2015-09-15T13:27:06Z</time>
      </trkpt>
      <trkpt lat="45.32735" lon="4.2073">
        <ele>683.63</ele>
        <time>2015-09-15T13:27:20Z</time>
      </trkpt>
      <trkpt lat="45.32647" lon="4.20766">
        <ele>689.88</ele>
        <time>2015-09-15T13:27:32Z</time>
      </trkpt>
      <trkpt lat="45.32592" lon="4.20793">
        <ele>694.21</ele>
        <time>2015-09-15T13:27:40Z</time>
      </trkpt>
      <trkpt lat="45.32572" lon="4.20831">
        <ele>696.61</ele>
        <time>2015-09-15T13:27:45Z</time>
      </trkpt>
      <trkpt lat="45.3255" lon="4.20997">
        <ele>704.3</ele>
        <time>2015-09-15T13:28:01Z</time>
      </trkpt>
      <trkpt lat="45.32533" lon="4.21121">
        <ele>711.99</ele>
        <time>2015-09-15T13:28:14Z</time>
      </trkpt>
      <trkpt lat="45.32518" lon="4.21193">
        <ele>722.57</ele>
        <time>2015-09-15T13:28:27Z</time>
      </trkpt>
      <trkpt lat="45.32495" lon="4.21219">
        <ele>730.26</ele>
        <time>2015-09-15T13:28:44Z</time>
      </trkpt>
      <trkpt lat="45.32479" lon="4.21252">
        <ele>733.62</ele>
        <time>2015-09-15T13:29:01Z</time>
      </trkpt>
      <trkpt lat="45.3248" lon="4.21291">
        <ele>736.99</ele>
        <time>2015-09-15T13:29:20Z</time>
      </trkpt>
      <trkpt lat="45.32496" lon="4.21314">
        <ele>738.91</ele>
        <time>2015-09-15T13:29:39Z</time>
      </trkpt>
      <trkpt lat="45.32525" lon="4.21333">
        <ele>739.39</ele>
        <time>2015-09-15T13:30:04Z</time>
      </trkpt>
      <trkpt lat="45.32561" lon="4.21337">
        <ele>736.99</ele>
        <time>2015-09-15T13:30:27Z</time>
      </trkpt>
      <trkpt lat="45.32591" lon="4.21341">
        <ele>735.55</ele>
        <time>2015-09-15T13:30:49Z</time>
      </trkpt>
      <trkpt lat="45.32613" lon="4.21343">
        <ele>730.74</ele>
        <time>2015-09-15T13:31:06Z</time>
      </trkpt>
      <trkpt lat="45.32634" lon="4.21352">
        <ele>726.41</ele>
        <time>2015-09-15T13:31:24Z</time>
      </trkpt>
      <trkpt lat="45.32656" lon="4.21377">
        <ele>723.05</ele>
        <time>2015-09-15T13:31:45Z</time>
      </trkpt>
      <trkpt lat="45.32676" lon="4.21404">
        <ele>723.53</ele>
        <time>2015-09-15T13:31:53Z</time>
      </trkpt>
      <trkpt lat="45.32744" lon="4.21424">
        <ele>724.49</ele>
        <time>2015-09-15T13:32:03Z</time>
      </trkpt>
      <trkpt lat="45.328" lon="4.21437">
        <ele>723.53</ele>
        <time>2015-09-15T13:32:12Z</time>
      </trkpt>
      <trkpt lat="45.32862" lon="4.2147">
        <ele>722.09</ele>
        <time>2015-09-15T13:32:22Z</time>
      </trkpt>
      <trkpt lat="45.32954" lon="4.21475">
        <ele>723.05</ele>
        <time>2015-09-15T13:32:35Z</time>
      </trkpt>
      <trkpt lat="45.33009" lon="4.21487">
        <ele>727.37</ele>
        <time>2015-09-15T13:32:46Z</time>
      </trkpt>
      <trkpt lat="45.33011" lon="4.2149">
        <ele>729.3</ele>
        <time>2015-09-15T13:32:52Z</time>
      </trkpt>
      <trkpt lat="45.33008" lon="4.21497">
        <ele>730.26</ele>
        <time>2015-09-15T13:32:57Z</time>
      </trkpt>
      <trkpt lat="45.3298" lon="4.21525">
        <ele>732.18</ele>
        <time>2015-09-15T13:33:19Z</time>
      </trkpt>
      <trkpt lat="45.3296" lon="4.21545">
        <ele>732.66</ele>
        <time>2015-09-15T13:33:35Z</time>
      </trkpt>
      <trkpt lat="45.32933" lon="4.21573">
        <ele>732.66</ele>
        <time>2015-09-15T13:33:53Z</time>
      </trkpt>
      <trkpt lat="45.32911" lon="4.21596">
        <ele>734.1</ele>
        <time>2015-09-15T13:34:05Z</time>
      </trkpt>
      <trkpt lat="45.32886" lon="4.21622">
        <ele>735.07</ele>
        <time>2015-09-15T13:34:26Z</time>
      </trkpt>
      <trkpt lat="45.32866" lon="4.21645">
        <ele>736.03</ele>
        <time>2015-09-15T13:34:46Z</time>
      </trkpt>
      <trkpt lat="45.32857" lon="4.21663">
        <ele>736.99</ele>
        <time>2015-09-15T13:34:53Z</time>
      </trkpt>
      <trkpt lat="45.3282" lon="4.21709">
        <ele>739.87</ele>
        <time>2015-09-15T13:35:02Z</time>
      </trkpt>
      <trkpt lat="45.32732" lon="4.21785">
        <ele>755.25</ele>
        <time>2015-09-15T13:35:18Z</time>
      </trkpt>
      <trkpt lat="45.32702" lon="4.21833">
        <ele>762.94</ele>
        <time>2015-09-15T13:35:30Z</time>
      </trkpt>
      <trkpt lat="45.32697" lon="4.21841">
        <ele>764.87</ele>
        <time>2015-09-15T13:35:36Z</time>
      </trkpt>
      <trkpt lat="45.32698" lon="4.21843">
        <ele>764.87</ele>
        <time>2015-09-15T13:35:38Z</time>
      </trkpt>
      <trkpt lat="45.3274" lon="4.2184">
        <ele>766.31</ele>
        <time>2015-09-15T13:35:46Z</time>
      </trkpt>
      <trkpt lat="45.32805" lon="4.21832">
        <ele>768.23</ele>
        <time>2015-09-15T13:35:56Z</time>
      </trkpt>
      <trkpt lat="45.3282" lon="4.21832">
        <ele>769.19</ele>
        <time>2015-09-15T13:36:00Z</time>
      </trkpt>
      <trkpt lat="45.32831" lon="4.21834">
        <ele>771.6</ele>
        <time>2015-09-15T13:36:09Z</time>
      </trkpt>
      <trkpt lat="45.32859" lon="4.21829">
        <ele>774.48</ele>
        <time>2015-09-15T13:36:32Z</time>
      </trkpt>
      <trkpt lat="45.32889" lon="4.21834">
        <ele>773.04</ele>
        <time>2015-09-15T13:36:55Z</time>
      </trkpt>
      <trkpt lat="45.32896" lon="4.2184">
        <ele>772.08</ele>
        <time>2015-09-15T13:37:01Z</time>
      </trkpt>
      <trkpt lat="45.32928" lon="4.21836">
        <ele>765.83</ele>
        <time>2015-09-15T13:37:20Z</time>
      </trkpt>
      <trkpt lat="45.32958" lon="4.21822">
        <ele>762.46</ele>
        <time>2015-09-15T13:37:44Z</time>
      </trkpt>
      <trkpt lat="45.32986" lon="4.21811">
        <ele>760.06</ele>
        <time>2015-09-15T13:38:07Z</time>
      </trkpt>
      <trkpt lat="45.33009" lon="4.21801">
        <ele>756.69</ele>
        <time>2015-09-15T13:38:29Z</time>
      </trkpt>
      <trkpt lat="45.33033" lon="4.21792">
        <ele>752.85</ele>
        <time>2015-09-15T13:38:50Z</time>
      </trkpt>
      <trkpt lat="45.33052" lon="4.21784">
        <ele>750.45</ele>
        <time>2015-09-15T13:39:07Z</time>
      </trkpt>
      <trkpt lat="45.3308" lon="4.2177">
        <ele>747.56</ele>
        <time>2015-09-15T13:39:28Z</time>
      </trkpt>
      <trkpt lat="45.33098" lon="4.2176">
        <ele>745.16</ele>
        <time>2015-09-15T13:39:43Z</time>
      </trkpt>
      <trkpt lat="45.33113" lon="4.21763">
        <ele>742.76</ele>
        <time>2015-09-15T13:39:57Z</time>
      </trkpt>
      <trkpt lat="45.33127" lon="4.2179">
        <ele>736.03</ele>
        <time>2015-09-15T13:40:18Z</time>
      </trkpt>
      <trkpt lat="45.33139" lon="4.21814">
        <ele>727.86</ele>
        <time>2015-09-15T13:40:37Z</time>
      </trkpt>
      <trkpt lat="45.33145" lon="4.2183">
        <ele>720.65</ele>
        <time>2015-09-15T13:40:53Z</time>
      </trkpt>
      <trkpt lat="45.33147" lon="4.21845">
        <ele>717.76</ele>
        <time>2015-09-15T13:41:03Z</time>
      </trkpt>
      <trkpt lat="45.33148" lon="4.2186">
        <ele>716.32</ele>
        <time>2015-09-15T13:41:17Z</time>
      </trkpt>
      <trkpt lat="45.33145" lon="4.21865">
        <ele>715.84</ele>
        <time>2015-09-15T13:41:30Z</time>
      </trkpt>
      <trkpt lat="45.33132" lon="4.2193">
        <ele>714.4</ele>
        <time>2015-09-15T13:41:43Z</time>
      </trkpt>
      <trkpt lat="45.33131" lon="4.21943">
        <ele>713.92</ele>
        <time>2015-09-15T13:41:44Z</time>
      </trkpt>
      <trkpt lat="45.33128" lon="4.21978">
        <ele>712.95</ele>
        <time>2015-09-15T13:41:47Z</time>
      </trkpt>
      <trkpt lat="45.33088" lon="4.22161">
        <ele>722.09</ele>
        <time>2015-09-15T13:42:03Z</time>
      </trkpt>
      <trkpt lat="45.33057" lon="4.22278">
        <ele>729.78</ele>
        <time>2015-09-15T13:42:16Z</time>
      </trkpt>
      <trkpt lat="45.33021" lon="4.22391">
        <ele>739.87</ele>
        <time>2015-09-15T13:42:31Z</time>
      </trkpt>
      <trkpt lat="45.33031" lon="4.22435">
        <ele>742.28</ele>
        <time>2015-09-15T13:42:37Z</time>
      </trkpt>
      <trkpt lat="45.33051" lon="4.22469">
        <ele>744.68</ele>
        <time>2015-09-15T13:42:42Z</time>
      </trkpt>
      <trkpt lat="45.33053" lon="4.22548">
        <ele>750.45</ele>
        <time>2015-09-15T13:42:52Z</time>
      </trkpt>
      <trkpt lat="45.33046" lon="4.22561">
        <ele>751.41</ele>
        <time>2015-09-15T13:42:54Z</time>
      </trkpt>
      <trkpt lat="45.33025" lon="4.22585">
        <ele>753.81</ele>
        <time>2015-09-15T13:42:59Z</time>
      </trkpt>
      <trkpt lat="45.33015" lon="4.22628">
        <ele>756.21</ele>
        <time>2015-09-15T13:43:05Z</time>
      </trkpt>
      <trkpt lat="45.33024" lon="4.22767">
        <ele>760.06</ele>
        <time>2015-09-15T13:43:20Z</time>
      </trkpt>
      <trkpt lat="45.33033" lon="4.22794">
        <ele>760.06</ele>
        <time>2015-09-15T13:43:23Z</time>
      </trkpt>
      <trkpt lat="45.33042" lon="4.22839">
        <ele>761.98</ele>
        <time>2015-09-15T13:43:29Z</time>
      </trkpt>
      <trkpt lat="45.3305" lon="4.22894">
        <ele>765.35</ele>
        <time>2015-09-15T13:43:40Z</time>
      </trkpt>
      <trkpt lat="45.3305" lon="4.22937">
        <ele>768.23</ele>
        <time>2015-09-15T13:44:01Z</time>
      </trkpt>
      <trkpt lat="45.33038" lon="4.22977">
        <ele>766.31</ele>
        <time>2015-09-15T13:44:21Z</time>
      </trkpt>
      <trkpt lat="45.33027" lon="4.23016">
        <ele>764.39</ele>
        <time>2015-09-15T13:44:44Z</time>
      </trkpt>
      <trkpt lat="45.33013" lon="4.23041">
        <ele>765.35</ele>
        <time>2015-09-15T13:45:02Z</time>
      </trkpt>
      <trkpt lat="45.33007" lon="4.23045">
        <ele>765.83</ele>
        <time>2015-09-15T13:45:07Z</time>
      </trkpt>
      <trkpt lat="45.32976" lon="4.23059">
        <ele>771.6</ele>
        <time>2015-09-15T13:45:26Z</time>
      </trkpt>
      <trkpt lat="45.3294" lon="4.23075">
        <ele>770.63</ele>
        <time>2015-09-15T13:45:51Z</time>
      </trkpt>
      <trkpt lat="45.32909" lon="4.23101">
        <ele>770.15</ele>
        <time>2015-09-15T13:46:16Z</time>
      </trkpt>
      <trkpt lat="45.3289" lon="4.23121">
        <ele>767.75</ele>
        <time>2015-09-15T13:46:40Z</time>
      </trkpt>
      <trkpt lat="45.32864" lon="4.23132">
        <ele>760.54</ele>
        <time>2015-09-15T13:47:05Z</time>
      </trkpt>
      <trkpt lat="45.32833" lon="4.23115">
        <ele>764.87</ele>
        <time>2015-09-15T13:47:23Z</time>
      </trkpt>
      <trkpt lat="45.32813" lon="4.23086">
        <ele>770.63</ele>
        <time>2015-09-15T13:47:45Z</time>
      </trkpt>
      <trkpt lat="45.32809" lon="4.23064">
        <ele>772.08</ele>
        <time>2015-09-15T13:47:56Z</time>
      </trkpt>
      <trkpt lat="45.32801" lon="4.23023">
        <ele>776.4</ele>
        <time>2015-09-15T13:48:15Z</time>
      </trkpt>
      <trkpt lat="45.3279" lon="4.22995">
        <ele>776.88</ele>
        <time>2015-09-15T13:48:33Z</time>
      </trkpt>
      <trkpt lat="45.3277" lon="4.22964">
        <ele>774.48</ele>
        <time>2015-09-15T13:48:55Z</time>
      </trkpt>
      <trkpt lat="45.32747" lon="4.22932">
        <ele>772.56</ele>
        <time>2015-09-15T13:49:19Z</time>
      </trkpt>
      <trkpt lat="45.32704" lon="4.22922">
        <ele>774</ele>
        <time>2015-09-15T13:49:33Z</time>
      </trkpt>
      <trkpt lat="45.32657" lon="4.2291">
        <ele>774.48</ele>
        <time>2015-09-15T13:49:48Z</time>
      </trkpt>
      <trkpt lat="45.32612" lon="4.22902">
        <ele>773.52</ele>
        <time>2015-09-15T13:49:59Z</time>
      </trkpt>
      <trkpt lat="45.32496" lon="4.22873">
        <ele>769.19</ele>
        <time>2015-09-15T13:50:17Z</time>
      </trkpt>
      <trkpt lat="45.32412" lon="4.22845">
        <ele>767.75</ele>
        <time>2015-09-15T13:50:33Z</time>
      </trkpt>
      <trkpt lat="45.32386" lon="4.22835">
        <ele>767.75</ele>
        <time>2015-09-15T13:50:49Z</time>
      </trkpt>
      <trkpt lat="45.32345" lon="4.22822">
        <ele>768.71</ele>
        <time>2015-09-15T13:51:15Z</time>
      </trkpt>
      <trkpt lat="45.32279" lon="4.22807">
        <ele>768.71</ele>
        <time>2015-09-15T13:51:29Z</time>
      </trkpt>
      <trkpt lat="45.32248" lon="4.22797">
        <ele>770.15</ele>
        <time>2015-09-15T13:51:34Z</time>
      </trkpt>
      <trkpt lat="45.32225" lon="4.2277">
        <ele>772.56</ele>
        <time>2015-09-15T13:51:40Z</time>
      </trkpt>
      <trkpt lat="45.32212" lon="4.22737">
        <ele>774.96</ele>
        <time>2015-09-15T13:51:50Z</time>
      </trkpt>
      <trkpt lat="45.32184" lon="4.22711">
        <ele>776.4</ele>
        <time>2015-09-15T13:52:13Z</time>
      </trkpt>
      <trkpt lat="45.3215" lon="4.22693">
        <ele>775.44</ele>
        <time>2015-09-15T13:52:36Z</time>
      </trkpt>
      <trkpt lat="45.32115" lon="4.22673">
        <ele>774.48</ele>
        <time>2015-09-15T13:53:00Z</time>
      </trkpt>
      <trkpt lat="45.32108" lon="4.22645">
        <ele>775.44</ele>
        <time>2015-09-15T13:53:15Z</time>
      </trkpt>
      <trkpt lat="45.32099" lon="4.22606">
        <ele>775.92</ele>
        <time>2015-09-15T13:53:34Z</time>
      </trkpt>
      <trkpt lat="45.32096" lon="4.22573">
        <ele>775.44</ele>
        <time>2015-09-15T13:53:51Z</time>
      </trkpt>
      <trkpt lat="45.32097" lon="4.22522">
        <ele>774.48</ele>
        <time>2015-09-15T13:54:11Z</time>
      </trkpt>
      <trkpt lat="45.32106" lon="4.22475">
        <ele>774.48</ele>
        <time>2015-09-15T13:54:34Z</time>
      </trkpt>
      <trkpt lat="45.32117" lon="4.22433">
        <ele>773.04</ele>
        <time>2015-09-15T13:54:53Z</time>
      </trkpt>
      <trkpt lat="45.32113" lon="4.22388">
        <ele>769.67</ele>
        <time>2015-09-15T13:55:13Z</time>
      </trkpt>
      <trkpt lat="45.32109" lon="4.22332">
        <ele>766.79</ele>
        <time>2015-09-15T13:55:36Z</time>
      </trkpt>
      <trkpt lat="45.32091" lon="4.22303">
        <ele>762.94</ele>
        <time>2015-09-15T13:55:53Z</time>
      </trkpt>
      <trkpt lat="45.3207" lon="4.22279">
        <ele>759.1</ele>
        <time>2015-09-15T13:56:11Z</time>
      </trkpt>
      <trkpt lat="45.32041" lon="4.22253">
        <ele>756.21</ele>
        <time>2015-09-15T13:56:31Z</time>
      </trkpt>
      <trkpt lat="45.3201" lon="4.22229">
        <ele>754.29</ele>
        <time>2015-09-15T13:56:54Z</time>
      </trkpt>
      <trkpt lat="45.31986" lon="4.22217">
        <ele>754.29</ele>
        <time>2015-09-15T13:57:12Z</time>
      </trkpt>
      <trkpt lat="45.31955" lon="4.22208">
        <ele>754.77</ele>
        <time>2015-09-15T13:57:34Z</time>
      </trkpt>
      <trkpt lat="45.31918" lon="4.22204">
        <ele>755.73</ele>
        <time>2015-09-15T13:58:01Z</time>
      </trkpt>
      <trkpt lat="45.31895" lon="4.22216">
        <ele>755.25</ele>
        <time>2015-09-15T13:58:21Z</time>
      </trkpt>
      <trkpt lat="45.31885" lon="4.22218">
        <ele>753.33</ele>
        <time>2015-09-15T13:58:30Z</time>
      </trkpt>
      <trkpt lat="45.31879" lon="4.22219">
        <ele>751.89</ele>
        <time>2015-09-15T13:58:34Z</time>
      </trkpt>
      <trkpt lat="45.3185" lon="4.22203">
        <ele>749</ele>
        <time>2015-09-15T13:58:54Z</time>
      </trkpt>
      <trkpt lat="45.31828" lon="4.22181">
        <ele>747.08</ele>
        <time>2015-09-15T13:59:12Z</time>
      </trkpt>
      <trkpt lat="45.31803" lon="4.22156">
        <ele>744.68</ele>
        <time>2015-09-15T13:59:32Z</time>
      </trkpt>
      <trkpt lat="45.31779" lon="4.22132">
        <ele>742.28</ele>
        <time>2015-09-15T13:59:52Z</time>
      </trkpt>
      <trkpt lat="45.31753" lon="4.22124">
        <ele>739.87</ele>
        <time>2015-09-15T14:00:11Z</time>
      </trkpt>
      <trkpt lat="45.31728" lon="4.22131">
        <ele>738.43</ele>
        <time>2015-09-15T14:00:28Z</time>
      </trkpt>
      <trkpt lat="45.31704" lon="4.22137">
        <ele>737.47</ele>
        <time>2015-09-15T14:00:46Z</time>
      </trkpt>
      <trkpt lat="45.31679" lon="4.22132">
        <ele>735.55</ele>
        <time>2015-09-15T14:01:04Z</time>
      </trkpt>
      <trkpt lat="45.31664" lon="4.22128">
        <ele>732.66</ele>
        <time>2015-09-15T14:01:21Z</time>
      </trkpt>
      <trkpt lat="45.31648" lon="4.22111">
        <ele>731.7</ele>
        <time>2015-09-15T14:01:39Z</time>
      </trkpt>
      <trkpt lat="45.31635" lon="4.22065">
        <ele>729.78</ele>
        <time>2015-09-15T14:02:04Z</time>
      </trkpt>
      <trkpt lat="45.31632" lon="4.22062">
        <ele>729.3</ele>
        <time>2015-09-15T14:02:19Z</time>
      </trkpt>
      <trkpt lat="45.31633" lon="4.22062">
        <ele>728.34</ele>
        <time>2015-09-15T14:02:29Z</time>
      </trkpt>
      <trkpt lat="45.31634" lon="4.22045">
        <ele>728.82</ele>
        <time>2015-09-15T14:02:37Z</time>
      </trkpt>
      <trkpt lat="45.31638" lon="4.22038">
        <ele>727.86</ele>
        <time>2015-09-15T14:02:42Z</time>
      </trkpt>
      <trkpt lat="45.31655" lon="4.22019">
        <ele>724.01</ele>
        <time>2015-09-15T14:03:03Z</time>
      </trkpt>
      <trkpt lat="45.31655" lon="4.22019">
        <ele>724.97</ele>
        <time>2015-09-15T14:03:41Z</time>
      </trkpt>
      <trkpt lat="45.31654" lon="4.2202">
        <ele>724.97</ele>
        <time>2015-09-15T14:04:13Z</time>
      </trkpt>
      <trkpt lat="45.31654" lon="4.2202">
        <ele>724.97</ele>
        <time>2015-09-15T14:04:47Z</time>
      </trkpt>
      <trkpt lat="45.31654" lon="4.2202">
        <ele>725.93</ele>
        <time>2015-09-15T14:05:16Z</time>
      </trkpt>
      <trkpt lat="45.31654" lon="4.22019">
        <ele>726.89</ele>
        <time>2015-09-15T14:05:45Z</time>
      </trkpt>
      <trkpt lat="45.31654" lon="4.22019">
        <ele>727.37</ele>
        <time>2015-09-15T14:06:17Z</time>
      </trkpt>
      <trkpt lat="45.31654" lon="4.22019">
        <ele>726.89</ele>
        <time>2015-09-15T14:06:45Z</time>
      </trkpt>
      <trkpt lat="45.31654" lon="4.22023">
        <ele>725.93</ele>
        <time>2015-09-15T14:07:14Z</time>
      </trkpt>
      <trkpt lat="45.31655" lon="4.22023">
        <ele>725.93</ele>
        <time>2015-09-15T14:07:51Z</time>
      </trkpt>
      <trkpt lat="45.31656" lon="4.22023">
        <ele>726.41</ele>
        <time>2015-09-15T14:08:19Z</time>
      </trkpt>
      <trkpt lat="45.31656" lon="4.22023">
        <ele>726.41</ele>
        <time>2015-09-15T14:08:41Z</time>
      </trkpt>
      <trkpt lat="45.31655" lon="4.22022">
        <ele>726.89</ele>
        <time>2015-09-15T14:09:00Z</time>
      </trkpt>
      <trkpt lat="45.31654" lon="4.22021">
        <ele>727.37</ele>
        <time>2015-09-15T14:09:32Z</time>
      </trkpt>
      <trkpt lat="45.31656" lon="4.22022">
        <ele>728.34</ele>
        <time>2015-09-15T14:10:09Z</time>
      </trkpt>
      <trkpt lat="45.31656" lon="4.22021">
        <ele>728.82</ele>
        <time>2015-09-15T14:10:40Z</time>
      </trkpt>
      <trkpt lat="45.31655" lon="4.2202">
        <ele>729.78</ele>
        <time>2015-09-15T14:11:16Z</time>
      </trkpt>
      <trkpt lat="45.31656" lon="4.2202">
        <ele>730.26</ele>
        <time>2015-09-15T14:11:49Z</time>
      </trkpt>
      <trkpt lat="45.31656" lon="4.2202">
        <ele>730.74</ele>
        <time>2015-09-15T14:12:25Z</time>
      </trkpt>
      <trkpt lat="45.31656" lon="4.2202">
        <ele>732.18</ele>
        <time>2015-09-15T14:12:56Z</time>
      </trkpt>
      <trkpt lat="45.31663" lon="4.22001">
        <ele>729.3</ele>
        <time>2015-09-15T14:13:18Z</time>
      </trkpt>
      <trkpt lat="45.31676" lon="4.21961">
        <ele>727.86</ele>
        <time>2015-09-15T14:13:39Z</time>
      </trkpt>
      <trkpt lat="45.3168" lon="4.21939">
        <ele>725.93</ele>
        <time>2015-09-15T14:13:50Z</time>
      </trkpt>
      <trkpt lat="45.31679" lon="4.21923">
        <ele>724.49</ele>
        <time>2015-09-15T14:13:59Z</time>
      </trkpt>
      <trkpt lat="45.31658" lon="4.21903">
        <ele>725.45</ele>
        <time>2015-09-15T14:14:19Z</time>
      </trkpt>
      <trkpt lat="45.31647" lon="4.21869">
        <ele>724.01</ele>
        <time>2015-09-15T14:14:37Z</time>
      </trkpt>
      <trkpt lat="45.31657" lon="4.21834">
        <ele>723.05</ele>
        <time>2015-09-15T14:14:56Z</time>
      </trkpt>
      <trkpt lat="45.31673" lon="4.21805">
        <ele>719.2</ele>
        <time>2015-09-15T14:15:16Z</time>
      </trkpt>
      <trkpt lat="45.31681" lon="4.21769">
        <ele>717.28</ele>
        <time>2015-09-15T14:15:35Z</time>
      </trkpt>
      <trkpt lat="45.31662" lon="4.21718">
        <ele>718.24</ele>
        <time>2015-09-15T14:15:49Z</time>
      </trkpt>
      <trkpt lat="45.31656" lon="4.21681">
        <ele>719.2</ele>
        <time>2015-09-15T14:16:07Z</time>
      </trkpt>
      <trkpt lat="45.31656" lon="4.21674">
        <ele>718.24</ele>
        <time>2015-09-15T14:16:11Z</time>
      </trkpt>
      <trkpt lat="45.31635" lon="4.21645">
        <ele>716.8</ele>
        <time>2015-09-15T14:16:30Z</time>
      </trkpt>
      <trkpt lat="45.31625" lon="4.21618">
        <ele>714.88</ele>
        <time>2015-09-15T14:16:47Z</time>
      </trkpt>
      <trkpt lat="45.31619" lon="4.21583">
        <ele>712.95</ele>
        <time>2015-09-15T14:17:07Z</time>
      </trkpt>
      <trkpt lat="45.31616" lon="4.21561">
        <ele>711.03</ele>
        <time>2015-09-15T14:17:18Z</time>
      </trkpt>
      <trkpt lat="45.31618" lon="4.21527">
        <ele>711.03</ele>
        <time>2015-09-15T14:17:33Z</time>
      </trkpt>
      <trkpt lat="45.31623" lon="4.21496">
        <ele>707.67</ele>
        <time>2015-09-15T14:17:50Z</time>
      </trkpt>
      <trkpt lat="45.31628" lon="4.21469">
        <ele>702.38</ele>
        <time>2015-09-15T14:18:05Z</time>
      </trkpt>
      <trkpt lat="45.31628" lon="4.21466">
        <ele>701.9</ele>
        <time>2015-09-15T14:18:07Z</time>
      </trkpt>
      <trkpt lat="45.31633" lon="4.21434">
        <ele>698.53</ele>
        <time>2015-09-15T14:18:24Z</time>
      </trkpt>
      <trkpt lat="45.31641" lon="4.21398">
        <ele>694.21</ele>
        <time>2015-09-15T14:18:42Z</time>
      </trkpt>
      <trkpt lat="45.31637" lon="4.21389">
        <ele>693.73</ele>
        <time>2015-09-15T14:18:56Z</time>
      </trkpt>
      <trkpt lat="45.31635" lon="4.2139">
        <ele>694.21</ele>
        <time>2015-09-15T14:18:58Z</time>
      </trkpt>
      <trkpt lat="45.31616" lon="4.21402">
        <ele>692.77</ele>
        <time>2015-09-15T14:19:14Z</time>
      </trkpt>
      <trkpt lat="45.31601" lon="4.21407">
        <ele>691.33</ele>
        <time>2015-09-15T14:19:29Z</time>
      </trkpt>
      <trkpt lat="45.31592" lon="4.2141">
        <ele>689.88</ele>
        <time>2015-09-15T14:19:37Z</time>
      </trkpt>
      <trkpt lat="45.31578" lon="4.21414">
        <ele>686.52</ele>
        <time>2015-09-15T14:19:51Z</time>
      </trkpt>
      <trkpt lat="45.31565" lon="4.21418">
        <ele>683.15</ele>
        <time>2015-09-15T14:20:09Z</time>
      </trkpt>
      <trkpt lat="45.31564" lon="4.21418">
        <ele>683.15</ele>
        <time>2015-09-15T14:20:12Z</time>
      </trkpt>
      <trkpt lat="45.31541" lon="4.21419">
        <ele>679.31</ele>
        <time>2015-09-15T14:20:31Z</time>
      </trkpt>
      <trkpt lat="45.31531" lon="4.21424">
        <ele>675.94</ele>
        <time>2015-09-15T14:20:45Z</time>
      </trkpt>
      <trkpt lat="45.31514" lon="4.21428">
        <ele>678.83</ele>
        <time>2015-09-15T14:21:02Z</time>
      </trkpt>
      <trkpt lat="45.31504" lon="4.21425">
        <ele>678.35</ele>
        <time>2015-09-15T14:21:19Z</time>
      </trkpt>
      <trkpt lat="45.31503" lon="4.21387">
        <ele>676.42</ele>
        <time>2015-09-15T14:21:37Z</time>
      </trkpt>
      <trkpt lat="45.31512" lon="4.21352">
        <ele>679.79</ele>
        <time>2015-09-15T14:21:55Z</time>
      </trkpt>
      <trkpt lat="45.31537" lon="4.21324">
        <ele>674.5</ele>
        <time>2015-09-15T14:22:14Z</time>
      </trkpt>
      <trkpt lat="45.31552" lon="4.21284">
        <ele>675.46</ele>
        <time>2015-09-15T14:22:35Z</time>
      </trkpt>
      <trkpt lat="45.31537" lon="4.21285">
        <ele>672.1</ele>
        <time>2015-09-15T14:22:54Z</time>
      </trkpt>
      <trkpt lat="45.3153" lon="4.21288">
        <ele>672.1</ele>
        <time>2015-09-15T14:22:59Z</time>
      </trkpt>
      <trkpt lat="45.31498" lon="4.21298">
        <ele>673.54</ele>
        <time>2015-09-15T14:23:15Z</time>
      </trkpt>
      <trkpt lat="45.31471" lon="4.21294">
        <ele>681.71</ele>
        <time>2015-09-15T14:23:35Z</time>
      </trkpt>
      <trkpt lat="45.31433" lon="4.21281">
        <ele>687.48</ele>
        <time>2015-09-15T14:23:53Z</time>
      </trkpt>
      <trkpt lat="45.31384" lon="4.21273">
        <ele>691.33</ele>
        <time>2015-09-15T14:24:05Z</time>
      </trkpt>
      <trkpt lat="45.31339" lon="4.21312">
        <ele>693.25</ele>
        <time>2015-09-15T14:24:16Z</time>
      </trkpt>
      <trkpt lat="45.31308" lon="4.21338">
        <ele>692.29</ele>
        <time>2015-09-15T14:24:27Z</time>
      </trkpt>
      <trkpt lat="45.31278" lon="4.21362">
        <ele>695.65</ele>
        <time>2015-09-15T14:24:47Z</time>
      </trkpt>
      <trkpt lat="45.31218" lon="4.21373">
        <ele>696.13</ele>
        <time>2015-09-15T14:24:59Z</time>
      </trkpt>
      <trkpt lat="45.31208" lon="4.21372">
        <ele>696.13</ele>
        <time>2015-09-15T14:25:01Z</time>
      </trkpt>
      <trkpt lat="45.31152" lon="4.21351">
        <ele>699.5</ele>
        <time>2015-09-15T14:25:13Z</time>
      </trkpt>
      <trkpt lat="45.31136" lon="4.21341">
        <ele>699.98</ele>
        <time>2015-09-15T14:25:26Z</time>
      </trkpt>
      <trkpt lat="45.31119" lon="4.21337">
        <ele>699.98</ele>
        <time>2015-09-15T14:25:39Z</time>
      </trkpt>
      <trkpt lat="45.31084" lon="4.21332">
        <ele>705.26</ele>
        <time>2015-09-15T14:26:02Z</time>
      </trkpt>
      <trkpt lat="45.31063" lon="4.21329">
        <ele>711.03</ele>
        <time>2015-09-15T14:26:13Z</time>
      </trkpt>
      <trkpt lat="45.31045" lon="4.21335">
        <ele>715.36</ele>
        <time>2015-09-15T14:26:16Z</time>
      </trkpt>
      <trkpt lat="45.30955" lon="4.21387">
        <ele>749.49</ele>
        <time>2015-09-15T14:26:31Z</time>
      </trkpt>
      <trkpt lat="45.30874" lon="4.21424">
        <ele>760.06</ele>
        <time>2015-09-15T14:26:44Z</time>
      </trkpt>
      <trkpt lat="45.30791" lon="4.21452">
        <ele>768.23</ele>
        <time>2015-09-15T14:26:57Z</time>
      </trkpt>
      <trkpt lat="45.30697" lon="4.21518">
        <ele>773.04</ele>
        <time>2015-09-15T14:27:13Z</time>
      </trkpt>
      <trkpt lat="45.30692" lon="4.21523">
        <ele>773.04</ele>
        <time>2015-09-15T14:27:14Z</time>
      </trkpt>
      <trkpt lat="45.30674" lon="4.21548">
        <ele>774</ele>
        <time>2015-09-15T14:27:18Z</time>
      </trkpt>
      <trkpt lat="45.30637" lon="4.21572">
        <ele>777.36</ele>
        <time>2015-09-15T14:27:29Z</time>
      </trkpt>
      <trkpt lat="45.30617" lon="4.21552">
        <ele>777.84</ele>
        <time>2015-09-15T14:27:46Z</time>
      </trkpt>
      <trkpt lat="45.306" lon="4.21522">
        <ele>777.84</ele>
        <time>2015-09-15T14:28:02Z</time>
      </trkpt>
      <trkpt lat="45.30563" lon="4.21465">
        <ele>778.81</ele>
        <time>2015-09-15T14:28:15Z</time>
      </trkpt>
      <trkpt lat="45.30558" lon="4.21438">
        <ele>776.88</ele>
        <time>2015-09-15T14:28:29Z</time>
      </trkpt>
      <trkpt lat="45.30561" lon="4.2143">
        <ele>776.88</ele>
        <time>2015-09-15T14:28:34Z</time>
      </trkpt>
      <trkpt lat="45.30579" lon="4.21408">
        <ele>774.96</ele>
        <time>2015-09-15T14:28:53Z</time>
      </trkpt>
      <trkpt lat="45.30603" lon="4.21384">
        <ele>773.52</ele>
        <time>2015-09-15T14:29:15Z</time>
      </trkpt>
      <trkpt lat="45.30628" lon="4.21354">
        <ele>774</ele>
        <time>2015-09-15T14:29:41Z</time>
      </trkpt>
      <trkpt lat="45.30643" lon="4.21329">
        <ele>774.48</ele>
        <time>2015-09-15T14:29:59Z</time>
      </trkpt>
      <trkpt lat="45.30663" lon="4.21304">
        <ele>775.44</ele>
        <time>2015-09-15T14:30:11Z</time>
      </trkpt>
      <trkpt lat="45.30687" lon="4.21286">
        <ele>776.88</ele>
        <time>2015-09-15T14:30:28Z</time>
      </trkpt>
      <trkpt lat="45.30714" lon="4.21273">
        <ele>777.84</ele>
        <time>2015-09-15T14:30:49Z</time>
      </trkpt>
      <trkpt lat="45.30739" lon="4.21243">
        <ele>778.32</ele>
        <time>2015-09-15T14:31:11Z</time>
      </trkpt>
      <trkpt lat="45.30756" lon="4.21221">
        <ele>776.88</ele>
        <time>2015-09-15T14:31:26Z</time>
      </trkpt>
      <trkpt lat="45.30772" lon="4.21195">
        <ele>774.96</ele>
        <time>2015-09-15T14:31:43Z</time>
      </trkpt>
      <trkpt lat="45.30781" lon="4.21188">
        <ele>774.48</ele>
        <time>2015-09-15T14:31:52Z</time>
      </trkpt>
      <trkpt lat="45.30794" lon="4.21159">
        <ele>773.04</ele>
        <time>2015-09-15T14:32:00Z</time>
      </trkpt>
      <trkpt lat="45.30803" lon="4.2113">
        <ele>772.56</ele>
        <time>2015-09-15T14:32:04Z</time>
      </trkpt>
      <trkpt lat="45.3081" lon="4.21012">
        <ele>771.6</ele>
        <time>2015-09-15T14:32:19Z</time>
      </trkpt>
      <trkpt lat="45.30809" lon="4.2099">
        <ele>772.08</ele>
        <time>2015-09-15T14:32:29Z</time>
      </trkpt>
      <trkpt lat="45.30813" lon="4.20962">
        <ele>769.67</ele>
        <time>2015-09-15T14:32:45Z</time>
      </trkpt>
      <trkpt lat="45.30821" lon="4.2093">
        <ele>766.79</ele>
        <time>2015-09-15T14:33:02Z</time>
      </trkpt>
      <trkpt lat="45.30829" lon="4.20896">
        <ele>764.87</ele>
        <time>2015-09-15T14:33:18Z</time>
      </trkpt>
      <trkpt lat="45.30839" lon="4.20863">
        <ele>762.46</ele>
        <time>2015-09-15T14:33:34Z</time>
      </trkpt>
      <trkpt lat="45.30856" lon="4.20821">
        <ele>760.54</ele>
        <time>2015-09-15T14:33:44Z</time>
      </trkpt>
      <trkpt lat="45.30885" lon="4.20722">
        <ele>756.69</ele>
        <time>2015-09-15T14:33:59Z</time>
      </trkpt>
      <trkpt lat="45.30904" lon="4.20608">
        <ele>752.37</ele>
        <time>2015-09-15T14:34:15Z</time>
      </trkpt>
      <trkpt lat="45.30914" lon="4.20543">
        <ele>751.41</ele>
        <time>2015-09-15T14:34:24Z</time>
      </trkpt>
      <trkpt lat="45.30928" lon="4.20472">
        <ele>750.45</ele>
        <time>2015-09-15T14:34:37Z</time>
      </trkpt>
      <trkpt lat="45.30933" lon="4.20447">
        <ele>750.93</ele>
        <time>2015-09-15T14:34:50Z</time>
      </trkpt>
      <trkpt lat="45.30932" lon="4.20442">
        <ele>750.93</ele>
        <time>2015-09-15T14:34:53Z</time>
      </trkpt>
      <trkpt lat="45.30911" lon="4.20432">
        <ele>751.41</ele>
        <time>2015-09-15T14:35:10Z</time>
      </trkpt>
      <trkpt lat="45.3089" lon="4.20424">
        <ele>752.85</ele>
        <time>2015-09-15T14:35:28Z</time>
      </trkpt>
      <trkpt lat="45.30875" lon="4.20417">
        <ele>752.85</ele>
        <time>2015-09-15T14:35:38Z</time>
      </trkpt>
      <trkpt lat="45.30852" lon="4.20407">
        <ele>751.89</ele>
        <time>2015-09-15T14:35:54Z</time>
      </trkpt>
      <trkpt lat="45.30832" lon="4.20399">
        <ele>750.45</ele>
        <time>2015-09-15T14:36:08Z</time>
      </trkpt>
      <trkpt lat="45.30811" lon="4.20389">
        <ele>750.45</ele>
        <time>2015-09-15T14:36:22Z</time>
      </trkpt>
      <trkpt lat="45.30797" lon="4.20382">
        <ele>745.64</ele>
        <time>2015-09-15T14:36:32Z</time>
      </trkpt>
      <trkpt lat="45.30789" lon="4.20353">
        <ele>743.72</ele>
        <time>2015-09-15T14:36:46Z</time>
      </trkpt>
      <trkpt lat="45.30786" lon="4.20341">
        <ele>744.2</ele>
        <time>2015-09-15T14:36:53Z</time>
      </trkpt>
      <trkpt lat="45.30783" lon="4.20335">
        <ele>743.24</ele>
        <time>2015-09-15T14:36:57Z</time>
      </trkpt>
      <trkpt lat="45.30765" lon="4.20323">
        <ele>738.43</ele>
        <time>2015-09-15T14:37:13Z</time>
      </trkpt>
      <trkpt lat="45.30748" lon="4.20317">
        <ele>736.51</ele>
        <time>2015-09-15T14:37:29Z</time>
      </trkpt>
      <trkpt lat="45.30745" lon="4.20314">
        <ele>736.03</ele>
        <time>2015-09-15T14:37:32Z</time>
      </trkpt>
      <trkpt lat="45.30733" lon="4.20304">
        <ele>734.1</ele>
        <time>2015-09-15T14:37:46Z</time>
      </trkpt>
      <trkpt lat="45.30718" lon="4.20293">
        <ele>733.14</ele>
        <time>2015-09-15T14:38:00Z</time>
      </trkpt>
      <trkpt lat="45.30707" lon="4.20286">
        <ele>728.82</ele>
        <time>2015-09-15T14:38:13Z</time>
      </trkpt>
      <trkpt lat="45.30705" lon="4.20283">
        <ele>727.86</ele>
        <time>2015-09-15T14:38:16Z</time>
      </trkpt>
      <trkpt lat="45.30689" lon="4.20264">
        <ele>727.37</ele>
        <time>2015-09-15T14:38:31Z</time>
      </trkpt>
      <trkpt lat="45.30679" lon="4.20258">
        <ele>724.01</ele>
        <time>2015-09-15T14:38:41Z</time>
      </trkpt>
      <trkpt lat="45.30669" lon="4.20251">
        <ele>719.2</ele>
        <time>2015-09-15T14:38:53Z</time>
      </trkpt>
      <trkpt lat="45.30668" lon="4.20239">
        <ele>716.32</ele>
        <time>2015-09-15T14:39:02Z</time>
      </trkpt>
      <trkpt lat="45.30674" lon="4.20213">
        <ele>711.03</ele>
        <time>2015-09-15T14:39:14Z</time>
      </trkpt>
      <trkpt lat="45.3068" lon="4.20198">
        <ele>708.63</ele>
        <time>2015-09-15T14:39:25Z</time>
      </trkpt>
      <trkpt lat="45.30686" lon="4.20186">
        <ele>706.23</ele>
        <time>2015-09-15T14:39:33Z</time>
      </trkpt>
      <trkpt lat="45.30688" lon="4.20184">
        <ele>705.75</ele>
        <time>2015-09-15T14:39:35Z</time>
      </trkpt>
      <trkpt lat="45.3069" lon="4.20181">
        <ele>705.26</ele>
        <time>2015-09-15T14:39:37Z</time>
      </trkpt>
      <trkpt lat="45.30696" lon="4.20151">
        <ele>706.23</ele>
        <time>2015-09-15T14:39:51Z</time>
      </trkpt>
      <trkpt lat="45.30696" lon="4.2015">
        <ele>706.23</ele>
        <time>2015-09-15T14:39:52Z</time>
      </trkpt>
      <trkpt lat="45.30699" lon="4.20141">
        <ele>705.75</ele>
        <time>2015-09-15T14:39:59Z</time>
      </trkpt>
      <trkpt lat="45.30708" lon="4.20119">
        <ele>702.86</ele>
        <time>2015-09-15T14:40:13Z</time>
      </trkpt>
      <trkpt lat="45.30716" lon="4.20104">
        <ele>699.02</ele>
        <time>2015-09-15T14:40:23Z</time>
      </trkpt>
      <trkpt lat="45.30718" lon="4.201">
        <ele>699.02</ele>
        <time>2015-09-15T14:40:25Z</time>
      </trkpt>
      <trkpt lat="45.30721" lon="4.20081">
        <ele>699.02</ele>
        <time>2015-09-15T14:40:38Z</time>
      </trkpt>
      <trkpt lat="45.30722" lon="4.20068">
        <ele>697.57</ele>
        <time>2015-09-15T14:40:51Z</time>
      </trkpt>
      <trkpt lat="45.30722" lon="4.20055">
        <ele>697.57</ele>
        <time>2015-09-15T14:41:05Z</time>
      </trkpt>
      <trkpt lat="45.30719" lon="4.20046">
        <ele>696.13</ele>
        <time>2015-09-15T14:41:17Z</time>
      </trkpt>
      <trkpt lat="45.30719" lon="4.20047">
        <ele>697.09</ele>
        <time>2015-09-15T14:41:33Z</time>
      </trkpt>
      <trkpt lat="45.30716" lon="4.20039">
        <ele>695.65</ele>
        <time>2015-09-15T14:41:47Z</time>
      </trkpt>
      <trkpt lat="45.30712" lon="4.20028">
        <ele>695.65</ele>
        <time>2015-09-15T14:41:59Z</time>
      </trkpt>
      <trkpt lat="45.30706" lon="4.2001">
        <ele>696.13</ele>
        <time>2015-09-15T14:42:14Z</time>
      </trkpt>
      <trkpt lat="45.30699" lon="4.19993">
        <ele>688.92</ele>
        <time>2015-09-15T14:42:26Z</time>
      </trkpt>
      <trkpt lat="45.30696" lon="4.19973">
        <ele>679.79</ele>
        <time>2015-09-15T14:42:40Z</time>
      </trkpt>
      <trkpt lat="45.30697" lon="4.19973">
        <ele>677.39</ele>
        <time>2015-09-15T14:42:51Z</time>
      </trkpt>
      <trkpt lat="45.30696" lon="4.19975">
        <ele>677.39</ele>
        <time>2015-09-15T14:43:05Z</time>
      </trkpt>
      <trkpt lat="45.30695" lon="4.19976">
        <ele>676.42</ele>
        <time>2015-09-15T14:43:06Z</time>
      </trkpt>
      <trkpt lat="45.30675" lon="4.19977">
        <ele>670.18</ele>
        <time>2015-09-15T14:43:22Z</time>
      </trkpt>
      <trkpt lat="45.30669" lon="4.19969">
        <ele>668.73</ele>
        <time>2015-09-15T14:43:29Z</time>
      </trkpt>
      <trkpt lat="45.3066" lon="4.19953">
        <ele>667.77</ele>
        <time>2015-09-15T14:43:42Z</time>
      </trkpt>
      <trkpt lat="45.30626" lon="4.1993">
        <ele>674.02</ele>
        <time>2015-09-15T14:43:57Z</time>
      </trkpt>
      <trkpt lat="45.30584" lon="4.19925">
        <ele>681.23</ele>
        <time>2015-09-15T14:44:07Z</time>
      </trkpt>
      <trkpt lat="45.30544" lon="4.19923">
        <ele>683.15</ele>
        <time>2015-09-15T14:44:15Z</time>
      </trkpt>
      <trkpt lat="45.30521" lon="4.19927">
        <ele>682.67</ele>
        <time>2015-09-15T14:44:24Z</time>
      </trkpt>
      <trkpt lat="45.30497" lon="4.19927">
        <ele>679.31</ele>
        <time>2015-09-15T14:44:40Z</time>
      </trkpt>
      <trkpt lat="45.30474" lon="4.19924">
        <ele>676.91</ele>
        <time>2015-09-15T14:44:56Z</time>
      </trkpt>
      <trkpt lat="45.30458" lon="4.19916">
        <ele>674.98</ele>
        <time>2015-09-15T14:45:08Z</time>
      </trkpt>
      <trkpt lat="45.30457" lon="4.19898">
        <ele>674.02</ele>
        <time>2015-09-15T14:45:13Z</time>
      </trkpt>
      <trkpt lat="45.30458" lon="4.19855">
        <ele>671.62</ele>
        <time>2015-09-15T14:45:19Z</time>
      </trkpt>
      <trkpt lat="45.3046" lon="4.19779">
        <ele>667.29</ele>
        <time>2015-09-15T14:45:28Z</time>
      </trkpt>
      <trkpt lat="45.30467" lon="4.19744">
        <ele>665.37</ele>
        <time>2015-09-15T14:45:32Z</time>
      </trkpt>
      <trkpt lat="45.3047" lon="4.19717">
        <ele>663.45</ele>
        <time>2015-09-15T14:45:35Z</time>
      </trkpt>
      <trkpt lat="45.30467" lon="4.19636">
        <ele>666.81</ele>
        <time>2015-09-15T14:45:44Z</time>
      </trkpt>
      <trkpt lat="45.30476" lon="4.19549">
        <ele>673.06</ele>
        <time>2015-09-15T14:45:54Z</time>
      </trkpt>
      <trkpt lat="45.30478" lon="4.19461">
        <ele>676.91</ele>
        <time>2015-09-15T14:46:05Z</time>
      </trkpt>
      <trkpt lat="45.3048" lon="4.19428">
        <ele>678.35</ele>
        <time>2015-09-15T14:46:20Z</time>
      </trkpt>
      <trkpt lat="45.30476" lon="4.19395">
        <ele>679.31</ele>
        <time>2015-09-15T14:46:36Z</time>
      </trkpt>
      <trkpt lat="45.30475" lon="4.19391">
        <ele>679.31</ele>
        <time>2015-09-15T14:46:38Z</time>
      </trkpt>
      <trkpt lat="45.30473" lon="4.19381">
        <ele>679.79</ele>
        <time>2015-09-15T14:46:43Z</time>
      </trkpt>
      <trkpt lat="45.30465" lon="4.19354">
        <ele>679.31</ele>
        <time>2015-09-15T14:46:59Z</time>
      </trkpt>
      <trkpt lat="45.30458" lon="4.1933">
        <ele>676.42</ele>
        <time>2015-09-15T14:47:18Z</time>
      </trkpt>
      <trkpt lat="45.30445" lon="4.19304">
        <ele>671.62</ele>
        <time>2015-09-15T14:47:37Z</time>
      </trkpt>
      <trkpt lat="45.30433" lon="4.19282">
        <ele>668.73</ele>
        <time>2015-09-15T14:47:54Z</time>
      </trkpt>
      <trkpt lat="45.30415" lon="4.1926">
        <ele>663.93</ele>
        <time>2015-09-15T14:48:15Z</time>
      </trkpt>
      <trkpt lat="45.30395" lon="4.19252">
        <ele>661.04</ele>
        <time>2015-09-15T14:48:35Z</time>
      </trkpt>
      <trkpt lat="45.30362" lon="4.19207">
        <ele>660.08</ele>
        <time>2015-09-15T14:49:02Z</time>
      </trkpt>
      <trkpt lat="45.30344" lon="4.19176">
        <ele>660.08</ele>
        <time>2015-09-15T14:49:24Z</time>
      </trkpt>
      <trkpt lat="45.30336" lon="4.1916">
        <ele>660.56</ele>
        <time>2015-09-15T14:49:34Z</time>
      </trkpt>
      <trkpt lat="45.30307" lon="4.19131">
        <ele>660.56</ele>
        <time>2015-09-15T14:49:58Z</time>
      </trkpt>
      <trkpt lat="45.30292" lon="4.19119">
        <ele>662.49</ele>
        <time>2015-09-15T14:50:11Z</time>
      </trkpt>
      <trkpt lat="45.30269" lon="4.19093">
        <ele>661.52</ele>
        <time>2015-09-15T14:50:30Z</time>
      </trkpt>
      <trkpt lat="45.30242" lon="4.19056">
        <ele>659.12</ele>
        <time>2015-09-15T14:50:49Z</time>
      </trkpt>
      <trkpt lat="45.30219" lon="4.19015">
        <ele>658.64</ele>
        <time>2015-09-15T14:50:55Z</time>
      </trkpt>
      <trkpt lat="45.30214" lon="4.18981">
        <ele>658.64</ele>
        <time>2015-09-15T14:51:00Z</time>
      </trkpt>
      <trkpt lat="45.30206" lon="4.18949">
        <ele>658.16</ele>
        <time>2015-09-15T14:51:15Z</time>
      </trkpt>
      <trkpt lat="45.30206" lon="4.18939">
        <ele>658.16</ele>
        <time>2015-09-15T14:51:22Z</time>
      </trkpt>
      <trkpt lat="45.30204" lon="4.18918">
        <ele>657.2</ele>
        <time>2015-09-15T14:51:34Z</time>
      </trkpt>
      <trkpt lat="45.30202" lon="4.18881">
        <ele>654.8</ele>
        <time>2015-09-15T14:51:50Z</time>
      </trkpt>
      <trkpt lat="45.30195" lon="4.18822">
        <ele>648.07</ele>
        <time>2015-09-15T14:52:01Z</time>
      </trkpt>
      <trkpt lat="45.30193" lon="4.18815">
        <ele>648.07</ele>
        <time>2015-09-15T14:52:03Z</time>
      </trkpt>
      <trkpt lat="45.30171" lon="4.18793">
        <ele>649.03</ele>
        <time>2015-09-15T14:52:14Z</time>
      </trkpt>
      <trkpt lat="45.30142" lon="4.18838">
        <ele>647.59</ele>
        <time>2015-09-15T14:52:25Z</time>
      </trkpt>
      <trkpt lat="45.30095" lon="4.18944">
        <ele>648.55</ele>
        <time>2015-09-15T14:52:40Z</time>
      </trkpt>
      <trkpt lat="45.30093" lon="4.18974">
        <ele>649.99</ele>
        <time>2015-09-15T14:52:49Z</time>
      </trkpt>
      <trkpt lat="45.30088" lon="4.18976">
        <ele>654.31</ele>
        <time>2015-09-15T14:52:54Z</time>
      </trkpt>
      <trkpt lat="45.30063" lon="4.18937">
        <ele>666.33</ele>
        <time>2015-09-15T14:53:12Z</time>
      </trkpt>
      <trkpt lat="45.30037" lon="4.18914">
        <ele>667.77</ele>
        <time>2015-09-15T14:53:17Z</time>
      </trkpt>
      <trkpt lat="45.29934" lon="4.18898">
        <ele>672.1</ele>
        <time>2015-09-15T14:53:32Z</time>
      </trkpt>
      <trkpt lat="45.29824" lon="4.18904">
        <ele>673.54</ele>
        <time>2015-09-15T14:53:48Z</time>
      </trkpt>
      <trkpt lat="45.29776" lon="4.18896">
        <ele>674.98</ele>
        <time>2015-09-15T14:53:55Z</time>
      </trkpt>
      <trkpt lat="45.29747" lon="4.1887">
        <ele>675.46</ele>
        <time>2015-09-15T14:54:00Z</time>
      </trkpt>
      <trkpt lat="45.29735" lon="4.18857">
        <ele>675.94</ele>
        <time>2015-09-15T14:54:02Z</time>
      </trkpt>
      <trkpt lat="45.29685" lon="4.18838">
        <ele>677.39</ele>
        <time>2015-09-15T14:54:09Z</time>
      </trkpt>
      <trkpt lat="45.29588" lon="4.18857">
        <ele>680.75</ele>
        <time>2015-09-15T14:54:24Z</time>
      </trkpt>
      <trkpt lat="45.29584" lon="4.18859">
        <ele>680.75</ele>
        <time>2015-09-15T14:54:26Z</time>
      </trkpt>
      <trkpt lat="45.2958" lon="4.18853">
        <ele>681.23</ele>
        <time>2015-09-15T14:54:32Z</time>
      </trkpt>
      <trkpt lat="45.29583" lon="4.18845">
        <ele>679.79</ele>
        <time>2015-09-15T14:54:40Z</time>
      </trkpt>
      <trkpt lat="45.29587" lon="4.18841">
        <ele>678.83</ele>
        <time>2015-09-15T14:54:55Z</time>
      </trkpt>
      <trkpt lat="45.29587" lon="4.18839">
        <ele>679.31</ele>
        <time>2015-09-15T14:55:29Z</time>
      </trkpt>
      <trkpt lat="45.29587" lon="4.18839">
        <ele>679.31</ele>
        <time>2015-09-15T14:55:36Z</time>
      </trkpt>
      <trkpt lat="45.29583" lon="4.18839">
        <ele>678.83</ele>
        <time>2015-09-15T14:55:40Z</time>
      </trkpt>
      <trkpt lat="45.29586" lon="4.18788">
        <ele>676.91</ele>
        <time>2015-09-15T14:55:51Z</time>
      </trkpt>
      <trkpt lat="45.29618" lon="4.18678">
        <ele>673.54</ele>
        <time>2015-09-15T14:56:06Z</time>
      </trkpt>
      <trkpt lat="45.29652" lon="4.18588">
        <ele>670.18</ele>
        <time>2015-09-15T14:56:20Z</time>
      </trkpt>
      <trkpt lat="45.29656" lon="4.18559">
        <ele>668.25</ele>
        <time>2015-09-15T14:56:35Z</time>
      </trkpt>
      <trkpt lat="45.29663" lon="4.18513">
        <ele>665.85</ele>
        <time>2015-09-15T14:56:57Z</time>
      </trkpt>
      <trkpt lat="45.2967" lon="4.18478">
        <ele>662.01</ele>
        <time>2015-09-15T14:57:16Z</time>
      </trkpt>
      <trkpt lat="45.29675" lon="4.18436">
        <ele>661.52</ele>
        <time>2015-09-15T14:57:36Z</time>
      </trkpt>
      <trkpt lat="45.29675" lon="4.18407">
        <ele>661.52</ele>
        <time>2015-09-15T14:57:51Z</time>
      </trkpt>
      <trkpt lat="45.29675" lon="4.18373">
        <ele>658.16</ele>
        <time>2015-09-15T14:58:10Z</time>
      </trkpt>
      <trkpt lat="45.29682" lon="4.18337">
        <ele>653.83</ele>
        <time>2015-09-15T14:58:30Z</time>
      </trkpt>
      <trkpt lat="45.29685" lon="4.18304">
        <ele>652.87</ele>
        <time>2015-09-15T14:58:46Z</time>
      </trkpt>
      <trkpt lat="45.29688" lon="4.18263">
        <ele>649.51</ele>
        <time>2015-09-15T14:59:06Z</time>
      </trkpt>
      <trkpt lat="45.29689" lon="4.18231">
        <ele>647.59</ele>
        <time>2015-09-15T14:59:22Z</time>
      </trkpt>
      <trkpt lat="45.29683" lon="4.18193">
        <ele>645.18</ele>
        <time>2015-09-15T14:59:43Z</time>
      </trkpt>
      <trkpt lat="45.29678" lon="4.1815">
        <ele>640.86</ele>
        <time>2015-09-15T15:00:04Z</time>
      </trkpt>
      <trkpt lat="45.29682" lon="4.18113">
        <ele>637.97</ele>
        <time>2015-09-15T15:00:22Z</time>
      </trkpt>
      <trkpt lat="45.29688" lon="4.18101">
        <ele>636.53</ele>
        <time>2015-09-15T15:00:37Z</time>
      </trkpt>
      <trkpt lat="45.2969" lon="4.18101">
        <ele>637.01</ele>
        <time>2015-09-15T15:00:41Z</time>
      </trkpt>
      <trkpt lat="45.29727" lon="4.18121">
        <ele>634.61</ele>
        <time>2015-09-15T15:00:51Z</time>
      </trkpt>
      <trkpt lat="45.29832" lon="4.18174">
        <ele>636.05</ele>
        <time>2015-09-15T15:01:08Z</time>
      </trkpt>
      <trkpt lat="45.29952" lon="4.18232">
        <ele>634.13</ele>
        <time>2015-09-15T15:01:27Z</time>
      </trkpt>
      <trkpt lat="45.29984" lon="4.18246">
        <ele>633.65</ele>
        <time>2015-09-15T15:01:36Z</time>
      </trkpt>
      <trkpt lat="45.30001" lon="4.18256">
        <ele>629.8</ele>
        <time>2015-09-15T15:01:51Z</time>
      </trkpt>
      <trkpt lat="45.3002" lon="4.18264">
        <ele>626.92</ele>
        <time>2015-09-15T15:02:08Z</time>
      </trkpt>
      <trkpt lat="45.30027" lon="4.18267">
        <ele>624.99</ele>
        <time>2015-09-15T15:02:20Z</time>
      </trkpt>
      <trkpt lat="45.30034" lon="4.1827">
        <ele>624.03</ele>
        <time>2015-09-15T15:02:47Z</time>
      </trkpt>
      <trkpt lat="45.30036" lon="4.18271">
        <ele>622.59</ele>
        <time>2015-09-15T15:03:02Z</time>
      </trkpt>
      <trkpt lat="45.30036" lon="4.18272">
        <ele>621.63</ele>
        <time>2015-09-15T15:03:21Z</time>
      </trkpt>
      <trkpt lat="45.30045" lon="4.18278">
        <ele>621.63</ele>
        <time>2015-09-15T15:03:42Z</time>
      </trkpt>
      <trkpt lat="45.30111" lon="4.1831">
        <ele>622.11</ele>
        <time>2015-09-15T15:03:51Z</time>
      </trkpt>
      <trkpt lat="45.30201" lon="4.18359">
        <ele>628.84</ele>
        <time>2015-09-15T15:04:05Z</time>
      </trkpt>
      <trkpt lat="45.3029" lon="4.18402">
        <ele>627.88</ele>
        <time>2015-09-15T15:04:21Z</time>
      </trkpt>
      <trkpt lat="45.30328" lon="4.18417">
        <ele>623.55</ele>
        <time>2015-09-15T15:04:32Z</time>
      </trkpt>
      <trkpt lat="45.30388" lon="4.18444">
        <ele>618.26</ele>
        <time>2015-09-15T15:04:44Z</time>
      </trkpt>
      <trkpt lat="45.30398" lon="4.1845">
        <ele>615.86</ele>
        <time>2015-09-15T15:04:58Z</time>
      </trkpt>
      <trkpt lat="45.30403" lon="4.18452">
        <ele>614.42</ele>
        <time>2015-09-15T15:05:10Z</time>
      </trkpt>
      <trkpt lat="45.30412" lon="4.18453">
        <ele>612.02</ele>
        <time>2015-09-15T15:05:21Z</time>
      </trkpt>
      <trkpt lat="45.30419" lon="4.18458">
        <ele>608.65</ele>
        <time>2015-09-15T15:05:31Z</time>
      </trkpt>
      <trkpt lat="45.30447" lon="4.18472">
        <ele>603.85</ele>
        <time>2015-09-15T15:05:49Z</time>
      </trkpt>
      <trkpt lat="45.30468" lon="4.18479">
        <ele>604.33</ele>
        <time>2015-09-15T15:06:04Z</time>
      </trkpt>
      <trkpt lat="45.30486" lon="4.18482">
        <ele>604.33</ele>
        <time>2015-09-15T15:06:17Z</time>
      </trkpt>
      <trkpt lat="45.30504" lon="4.18494">
        <ele>602.88</ele>
        <time>2015-09-15T15:06:32Z</time>
      </trkpt>
      <trkpt lat="45.30525" lon="4.18504">
        <ele>600</ele>
        <time>2015-09-15T15:06:47Z</time>
      </trkpt>
      <trkpt lat="45.30541" lon="4.18514">
        <ele>599.52</ele>
        <time>2015-09-15T15:06:58Z</time>
      </trkpt>
      <trkpt lat="45.30566" lon="4.18527">
        <ele>598.08</ele>
        <time>2015-09-15T15:07:16Z</time>
      </trkpt>
      <trkpt lat="45.30587" lon="4.18536">
        <ele>597.12</ele>
        <time>2015-09-15T15:07:32Z</time>
      </trkpt>
      <trkpt lat="45.30608" lon="4.18546">
        <ele>596.64</ele>
        <time>2015-09-15T15:07:48Z</time>
      </trkpt>
      <trkpt lat="45.30631" lon="4.18556">
        <ele>595.67</ele>
        <time>2015-09-15T15:08:05Z</time>
      </trkpt>
      <trkpt lat="45.30652" lon="4.18567">
        <ele>593.27</ele>
        <time>2015-09-15T15:08:20Z</time>
      </trkpt>
      <trkpt lat="45.30678" lon="4.18579">
        <ele>590.39</ele>
        <time>2015-09-15T15:08:38Z</time>
      </trkpt>
      <trkpt lat="45.30703" lon="4.1859">
        <ele>587.02</ele>
        <time>2015-09-15T15:08:55Z</time>
      </trkpt>
      <trkpt lat="45.30726" lon="4.18602">
        <ele>584.62</ele>
        <time>2015-09-15T15:09:11Z</time>
      </trkpt>
      <trkpt lat="45.30751" lon="4.18615">
        <ele>582.7</ele>
        <time>2015-09-15T15:09:29Z</time>
      </trkpt>
      <trkpt lat="45.30776" lon="4.18627">
        <ele>581.73</ele>
        <time>2015-09-15T15:09:45Z</time>
      </trkpt>
      <trkpt lat="45.30836" lon="4.18657">
        <ele>580.29</ele>
        <time>2015-09-15T15:09:56Z</time>
      </trkpt>
      <trkpt lat="45.30873" lon="4.18675">
        <ele>580.29</ele>
        <time>2015-09-15T15:10:05Z</time>
      </trkpt>
      <trkpt lat="45.3089" lon="4.18652">
        <ele>576.45</ele>
        <time>2015-09-15T15:10:20Z</time>
      </trkpt>
      <trkpt lat="45.30904" lon="4.18626">
        <ele>573.56</ele>
        <time>2015-09-15T15:10:36Z</time>
      </trkpt>
      <trkpt lat="45.30908" lon="4.18613">
        <ele>572.12</ele>
        <time>2015-09-15T15:10:44Z</time>
      </trkpt>
      <trkpt lat="45.30909" lon="4.18584">
        <ele>575.01</ele>
        <time>2015-09-15T15:10:59Z</time>
      </trkpt>
      <trkpt lat="45.30906" lon="4.1857">
        <ele>577.89</ele>
        <time>2015-09-15T15:11:16Z</time>
      </trkpt>
      <trkpt lat="45.30889" lon="4.18533">
        <ele>581.73</ele>
        <time>2015-09-15T15:11:27Z</time>
      </trkpt>
      <trkpt lat="45.30864" lon="4.18459">
        <ele>586.54</ele>
        <time>2015-09-15T15:11:36Z</time>
      </trkpt>
      <trkpt lat="45.30861" lon="4.18361">
        <ele>597.12</ele>
        <time>2015-09-15T15:11:47Z</time>
      </trkpt>
      <trkpt lat="45.30841" lon="4.18302">
        <ele>599.04</ele>
        <time>2015-09-15T15:11:54Z</time>
      </trkpt>
      <trkpt lat="45.30829" lon="4.18274">
        <ele>600.96</ele>
        <time>2015-09-15T15:12:04Z</time>
      </trkpt>
      <trkpt lat="45.30822" lon="4.1824">
        <ele>601.44</ele>
        <time>2015-09-15T15:12:22Z</time>
      </trkpt>
      <trkpt lat="45.30822" lon="4.18228">
        <ele>601.44</ele>
        <time>2015-09-15T15:12:29Z</time>
      </trkpt>
      <trkpt lat="45.30825" lon="4.18196">
        <ele>597.12</ele>
        <time>2015-09-15T15:12:47Z</time>
      </trkpt>
      <trkpt lat="45.30828" lon="4.18162">
        <ele>594.71</ele>
        <time>2015-09-15T15:13:05Z</time>
      </trkpt>
      <trkpt lat="45.30835" lon="4.18136">
        <ele>598.08</ele>
        <time>2015-09-15T15:13:18Z</time>
      </trkpt>
      <trkpt lat="45.30847" lon="4.18106">
        <ele>599.04</ele>
        <time>2015-09-15T15:13:36Z</time>
      </trkpt>
      <trkpt lat="45.30853" lon="4.1807">
        <ele>597.6</ele>
        <time>2015-09-15T15:13:54Z</time>
      </trkpt>
      <trkpt lat="45.30854" lon="4.18035">
        <ele>595.67</ele>
        <time>2015-09-15T15:14:11Z</time>
      </trkpt>
      <trkpt lat="45.30856" lon="4.18003">
        <ele>595.67</ele>
        <time>2015-09-15T15:14:25Z</time>
      </trkpt>
      <trkpt lat="45.30866" lon="4.17976">
        <ele>599.52</ele>
        <time>2015-09-15T15:14:38Z</time>
      </trkpt>
      <trkpt lat="45.30883" lon="4.17948">
        <ele>600</ele>
        <time>2015-09-15T15:14:48Z</time>
      </trkpt>
      <trkpt lat="45.30886" lon="4.1792">
        <ele>600.48</ele>
        <time>2015-09-15T15:15:02Z</time>
      </trkpt>
      <trkpt lat="45.30896" lon="4.17886">
        <ele>602.88</ele>
        <time>2015-09-15T15:15:21Z</time>
      </trkpt>
      <trkpt lat="45.30917" lon="4.17853">
        <ele>606.73</ele>
        <time>2015-09-15T15:15:35Z</time>
      </trkpt>
      <trkpt lat="45.3098" lon="4.17788">
        <ele>610.57</ele>
        <time>2015-09-15T15:15:47Z</time>
      </trkpt>
      <trkpt lat="45.30991" lon="4.17778">
        <ele>611.54</ele>
        <time>2015-09-15T15:15:49Z</time>
      </trkpt>
      <trkpt lat="45.31015" lon="4.17747">
        <ele>614.9</ele>
        <time>2015-09-15T15:15:54Z</time>
      </trkpt>
      <trkpt lat="45.31055" lon="4.17725">
        <ele>621.63</ele>
        <time>2015-09-15T15:16:03Z</time>
      </trkpt>
      <trkpt lat="45.3106" lon="4.17722">
        <ele>622.11</ele>
        <time>2015-09-15T15:16:04Z</time>
      </trkpt>
      <trkpt lat="45.3114" lon="4.17661">
        <ele>624.03</ele>
        <time>2015-09-15T15:16:19Z</time>
      </trkpt>
      <trkpt lat="45.31224" lon="4.17598">
        <ele>624.51</ele>
        <time>2015-09-15T15:16:33Z</time>
      </trkpt>
      <trkpt lat="45.31256" lon="4.17572">
        <ele>625.47</ele>
        <time>2015-09-15T15:16:43Z</time>
      </trkpt>
      <trkpt lat="45.31284" lon="4.17565">
        <ele>623.55</ele>
        <time>2015-09-15T15:17:03Z</time>
      </trkpt>
      <trkpt lat="45.31318" lon="4.17566">
        <ele>619.71</ele>
        <time>2015-09-15T15:17:24Z</time>
      </trkpt>
      <trkpt lat="45.31354" lon="4.17555">
        <ele>617.78</ele>
        <time>2015-09-15T15:17:33Z</time>
      </trkpt>
      <trkpt lat="45.31438" lon="4.17528">
        <ele>613.46</ele>
        <time>2015-09-15T15:17:48Z</time>
      </trkpt>
      <trkpt lat="45.31523" lon="4.17503">
        <ele>609.13</ele>
        <time>2015-09-15T15:18:03Z</time>
      </trkpt>
      <trkpt lat="45.31537" lon="4.17501">
        <ele>608.65</ele>
        <time>2015-09-15T15:18:05Z</time>
      </trkpt>
      <trkpt lat="45.31611" lon="4.1751">
        <ele>607.69</ele>
        <time>2015-09-15T15:18:17Z</time>
      </trkpt>
      <trkpt lat="45.31634" lon="4.1751">
        <ele>607.69</ele>
        <time>2015-09-15T15:18:26Z</time>
      </trkpt>
      <trkpt lat="45.31639" lon="4.17508">
        <ele>605.77</ele>
        <time>2015-09-15T15:18:40Z</time>
      </trkpt>
      <trkpt lat="45.31668" lon="4.17501">
        <ele>603.36</ele>
        <time>2015-09-15T15:19:05Z</time>
      </trkpt>
      <trkpt lat="45.31669" lon="4.17501">
        <ele>601.44</ele>
        <time>2015-09-15T15:19:24Z</time>
      </trkpt>
      <trkpt lat="45.31677" lon="4.17509">
        <ele>599.04</ele>
        <time>2015-09-15T15:19:56Z</time>
      </trkpt>
      <trkpt lat="45.31675" lon="4.17508">
        <ele>595.67</ele>
        <time>2015-09-15T15:20:14Z</time>
      </trkpt>
      <trkpt lat="45.31673" lon="4.17506">
        <ele>594.23</ele>
        <time>2015-09-15T15:20:26Z</time>
      </trkpt>
      <trkpt lat="45.31674" lon="4.17508">
        <ele>593.27</ele>
        <time>2015-09-15T15:20:39Z</time>
      </trkpt>
      <trkpt lat="45.31672" lon="4.17505">
        <ele>592.79</ele>
        <time>2015-09-15T15:20:51Z</time>
      </trkpt>
      <trkpt lat="45.31678" lon="4.17512">
        <ele>592.31</ele>
        <time>2015-09-15T15:21:03Z</time>
      </trkpt>
      <trkpt lat="45.31686" lon="4.17512">
        <ele>591.35</ele>
        <time>2015-09-15T15:21:15Z</time>
      </trkpt>
      <trkpt lat="45.31706" lon="4.17508">
        <ele>588.46</ele>
        <time>2015-09-15T15:21:32Z</time>
      </trkpt>
      <trkpt lat="45.31725" lon="4.17503">
        <ele>584.14</ele>
        <time>2015-09-15T15:21:50Z</time>
      </trkpt>
      <trkpt lat="45.31732" lon="4.17502">
        <ele>581.73</ele>
        <time>2015-09-15T15:22:03Z</time>
      </trkpt>
      <trkpt lat="45.31731" lon="4.17503">
        <ele>581.25</ele>
        <time>2015-09-15T15:22:12Z</time>
      </trkpt>
      <trkpt lat="45.31735" lon="4.17504">
        <ele>580.77</ele>
        <time>2015-09-15T15:22:28Z</time>
      </trkpt>
      <trkpt lat="45.31736" lon="4.17506">
        <ele>581.25</ele>
        <time>2015-09-15T15:22:53Z</time>
      </trkpt>
      <trkpt lat="45.31741" lon="4.17532">
        <ele>580.77</ele>
        <time>2015-09-15T15:23:12Z</time>
      </trkpt>
      <trkpt lat="45.31739" lon="4.17561">
        <ele>578.85</ele>
        <time>2015-09-15T15:23:32Z</time>
      </trkpt>
      <trkpt lat="45.31738" lon="4.17593">
        <ele>574.53</ele>
        <time>2015-09-15T15:23:54Z</time>
      </trkpt>
      <trkpt lat="45.31739" lon="4.17601">
        <ele>574.53</ele>
        <time>2015-09-15T15:23:58Z</time>
      </trkpt>
      <trkpt lat="45.3174" lon="4.17626">
        <ele>571.64</ele>
        <time>2015-09-15T15:24:15Z</time>
      </trkpt>
      <trkpt lat="45.31756" lon="4.17632">
        <ele>566.83</ele>
        <time>2015-09-15T15:24:31Z</time>
      </trkpt>
      <trkpt lat="45.31773" lon="4.17626">
        <ele>563.47</ele>
        <time>2015-09-15T15:24:49Z</time>
      </trkpt>
      <trkpt lat="45.31794" lon="4.17628">
        <ele>564.43</ele>
        <time>2015-09-15T15:25:06Z</time>
      </trkpt>
      <trkpt lat="45.31808" lon="4.1762">
        <ele>563.95</ele>
        <time>2015-09-15T15:25:23Z</time>
      </trkpt>
      <trkpt lat="45.31814" lon="4.17627">
        <ele>563.47</ele>
        <time>2015-09-15T15:25:38Z</time>
      </trkpt>
      <trkpt lat="45.31828" lon="4.17632">
        <ele>562.03</ele>
        <time>2015-09-15T15:25:57Z</time>
      </trkpt>
      <trkpt lat="45.31846" lon="4.17633">
        <ele>558.66</ele>
        <time>2015-09-15T15:26:16Z</time>
      </trkpt>
      <trkpt lat="45.31856" lon="4.17633">
        <ele>558.18</ele>
        <time>2015-09-15T15:26:29Z</time>
      </trkpt>
      <trkpt lat="45.31857" lon="4.17634">
        <ele>558.66</ele>
        <time>2015-09-15T15:26:49Z</time>
      </trkpt>
      <trkpt lat="45.31857" lon="4.17634">
        <ele>558.66</ele>
        <time>2015-09-15T15:27:14Z</time>
      </trkpt>
      <trkpt lat="45.31856" lon="4.17632">
        <ele>558.66</ele>
        <time>2015-09-15T15:27:28Z</time>
      </trkpt>
      <trkpt lat="45.31856" lon="4.17632">
        <ele>558.66</ele>
        <time>2015-09-15T15:27:45Z</time>
      </trkpt>
      <trkpt lat="45.31858" lon="4.17631">
        <ele>558.18</ele>
        <time>2015-09-15T15:28:02Z</time>
      </trkpt>
      <trkpt lat="45.31872" lon="4.17607">
        <ele>558.18</ele>
        <time>2015-09-15T15:28:21Z</time>
      </trkpt>
      <trkpt lat="45.31891" lon="4.17566">
        <ele>555.78</ele>
        <time>2015-09-15T15:28:45Z</time>
      </trkpt>
      <trkpt lat="45.319" lon="4.17538">
        <ele>556.26</ele>
        <time>2015-09-15T15:28:54Z</time>
      </trkpt>
      <trkpt lat="45.31901" lon="4.17448">
        <ele>557.22</ele>
        <time>2015-09-15T15:29:05Z</time>
      </trkpt>
      <trkpt lat="45.31869" lon="4.17355">
        <ele>558.66</ele>
        <time>2015-09-15T15:29:18Z</time>
      </trkpt>
      <trkpt lat="45.31864" lon="4.17327">
        <ele>556.74</ele>
        <time>2015-09-15T15:29:32Z</time>
      </trkpt>
      <trkpt lat="45.31874" lon="4.1729">
        <ele>554.82</ele>
        <time>2015-09-15T15:29:53Z</time>
      </trkpt>
      <trkpt lat="45.31897" lon="4.17263">
        <ele>555.3</ele>
        <time>2015-09-15T15:30:15Z</time>
      </trkpt>
      <trkpt lat="45.31915" lon="4.17243">
        <ele>561.55</ele>
        <time>2015-09-15T15:30:36Z</time>
      </trkpt>
      <trkpt lat="45.31881" lon="4.17231">
        <ele>560.59</ele>
        <time>2015-09-15T15:30:47Z</time>
      </trkpt>
      <trkpt lat="45.31794" lon="4.1721">
        <ele>556.74</ele>
        <time>2015-09-15T15:31:03Z</time>
      </trkpt>
      <trkpt lat="45.317" lon="4.17186">
        <ele>562.51</ele>
        <time>2015-09-15T15:31:18Z</time>
      </trkpt>
      <trkpt lat="45.31615" lon="4.17154">
        <ele>564.43</ele>
        <time>2015-09-15T15:31:31Z</time>
      </trkpt>
      <trkpt lat="45.31524" lon="4.17136">
        <ele>567.32</ele>
        <time>2015-09-15T15:31:45Z</time>
      </trkpt>
      <trkpt lat="45.31443" lon="4.17109">
        <ele>582.7</ele>
        <time>2015-09-15T15:31:58Z</time>
      </trkpt>
      <trkpt lat="45.31378" lon="4.17104">
        <ele>593.27</ele>
        <time>2015-09-15T15:32:09Z</time>
      </trkpt>
      <trkpt lat="45.31341" lon="4.17103">
        <ele>596.64</ele>
        <time>2015-09-15T15:32:16Z</time>
      </trkpt>
      <trkpt lat="45.31319" lon="4.171">
        <ele>598.56</ele>
        <time>2015-09-15T15:32:21Z</time>
      </trkpt>
      <trkpt lat="45.31313" lon="4.17098">
        <ele>601.92</ele>
        <time>2015-09-15T15:32:25Z</time>
      </trkpt>
      <trkpt lat="45.31311" lon="4.17071">
        <ele>602.88</ele>
        <time>2015-09-15T15:32:37Z</time>
      </trkpt>
      <trkpt lat="45.31321" lon="4.17059">
        <ele>601.44</ele>
        <time>2015-09-15T15:32:51Z</time>
      </trkpt>
      <trkpt lat="45.31323" lon="4.17057">
        <ele>601.92</ele>
        <time>2015-09-15T15:32:53Z</time>
      </trkpt>
      <trkpt lat="45.31337" lon="4.17042">
        <ele>600</ele>
        <time>2015-09-15T15:33:07Z</time>
      </trkpt>
      <trkpt lat="45.31346" lon="4.17032">
        <ele>599.04</ele>
        <time>2015-09-15T15:33:13Z</time>
      </trkpt>
      <trkpt lat="45.31356" lon="4.1702">
        <ele>599.04</ele>
        <time>2015-09-15T15:33:16Z</time>
      </trkpt>
      <trkpt lat="45.31398" lon="4.16994">
        <ele>601.44</ele>
        <time>2015-09-15T15:33:25Z</time>
      </trkpt>
      <trkpt lat="45.3145" lon="4.16956">
        <ele>604.33</ele>
        <time>2015-09-15T15:33:38Z</time>
      </trkpt>
      <trkpt lat="45.31467" lon="4.1694">
        <ele>606.73</ele>
        <time>2015-09-15T15:33:53Z</time>
      </trkpt>
      <trkpt lat="45.31473" lon="4.16937">
        <ele>606.73</ele>
        <time>2015-09-15T15:33:58Z</time>
      </trkpt>
      <trkpt lat="45.31488" lon="4.16926">
        <ele>606.25</ele>
        <time>2015-09-15T15:34:12Z</time>
      </trkpt>
      <trkpt lat="45.31508" lon="4.16902">
        <ele>606.73</ele>
        <time>2015-09-15T15:34:31Z</time>
      </trkpt>
      <trkpt lat="45.31527" lon="4.1689">
        <ele>605.77</ele>
        <time>2015-09-15T15:34:46Z</time>
      </trkpt>
      <trkpt lat="45.31543" lon="4.16875">
        <ele>603.85</ele>
        <time>2015-09-15T15:35:00Z</time>
      </trkpt>
      <trkpt lat="45.31556" lon="4.16858">
        <ele>602.88</ele>
        <time>2015-09-15T15:35:13Z</time>
      </trkpt>
      <trkpt lat="45.31565" lon="4.1685">
        <ele>601.44</ele>
        <time>2015-09-15T15:35:21Z</time>
      </trkpt>
      <trkpt lat="45.31568" lon="4.16848">
        <ele>601.44</ele>
        <time>2015-09-15T15:35:24Z</time>
      </trkpt>
      <trkpt lat="45.31585" lon="4.16829">
        <ele>599.52</ele>
        <time>2015-09-15T15:35:41Z</time>
      </trkpt>
      <trkpt lat="45.31603" lon="4.16814">
        <ele>596.15</ele>
        <time>2015-09-15T15:35:57Z</time>
      </trkpt>
      <trkpt lat="45.31605" lon="4.16812">
        <ele>595.67</ele>
        <time>2015-09-15T15:35:59Z</time>
      </trkpt>
      <trkpt lat="45.31624" lon="4.16794">
        <ele>595.67</ele>
        <time>2015-09-15T15:36:14Z</time>
      </trkpt>
      <trkpt lat="45.31642" lon="4.16776">
        <ele>593.27</ele>
        <time>2015-09-15T15:36:30Z</time>
      </trkpt>
      <trkpt lat="45.31646" lon="4.16773">
        <ele>592.79</ele>
        <time>2015-09-15T15:36:34Z</time>
      </trkpt>
      <trkpt lat="45.31648" lon="4.16768">
        <ele>591.35</ele>
        <time>2015-09-15T15:36:49Z</time>
      </trkpt>
      <trkpt lat="45.31649" lon="4.16768">
        <ele>592.31</ele>
        <time>2015-09-15T15:37:09Z</time>
      </trkpt>
      <trkpt lat="45.3165" lon="4.16768">
        <ele>592.31</ele>
        <time>2015-09-15T15:37:20Z</time>
      </trkpt>
      <trkpt lat="45.3165" lon="4.16759">
        <ele>591.35</ele>
        <time>2015-09-15T15:37:34Z</time>
      </trkpt>
      <trkpt lat="45.31652" lon="4.16758">
        <ele>590.39</ele>
        <time>2015-09-15T15:37:50Z</time>
      </trkpt>
      <trkpt lat="45.31662" lon="4.16754">
        <ele>588.95</ele>
        <time>2015-09-15T15:37:59Z</time>
      </trkpt>
      <trkpt lat="45.3168" lon="4.16741">
        <ele>587.5</ele>
        <time>2015-09-15T15:38:15Z</time>
      </trkpt>
      <trkpt lat="45.31685" lon="4.16729">
        <ele>587.5</ele>
        <time>2015-09-15T15:38:23Z</time>
      </trkpt>
      <trkpt lat="45.31687" lon="4.16724">
        <ele>587.02</ele>
        <time>2015-09-15T15:38:27Z</time>
      </trkpt>
      <trkpt lat="45.31701" lon="4.16729">
        <ele>585.58</ele>
        <time>2015-09-15T15:38:40Z</time>
      </trkpt>
      <trkpt lat="45.31709" lon="4.16742">
        <ele>581.73</ele>
        <time>2015-09-15T15:38:53Z</time>
      </trkpt>
      <trkpt lat="45.31714" lon="4.16741">
        <ele>580.29</ele>
        <time>2015-09-15T15:38:59Z</time>
      </trkpt>
      <trkpt lat="45.31739" lon="4.16735">
        <ele>580.77</ele>
        <time>2015-09-15T15:39:18Z</time>
      </trkpt>
      <trkpt lat="45.31758" lon="4.16729">
        <ele>581.73</ele>
        <time>2015-09-15T15:39:33Z</time>
      </trkpt>
      <trkpt lat="45.31771" lon="4.16727">
        <ele>580.77</ele>
        <time>2015-09-15T15:39:44Z</time>
      </trkpt>
      <trkpt lat="45.31786" lon="4.167">
        <ele>577.41</ele>
        <time>2015-09-15T15:40:02Z</time>
      </trkpt>
      <trkpt lat="45.31797" lon="4.16674">
        <ele>578.37</ele>
        <time>2015-09-15T15:40:18Z</time>
      </trkpt>
      <trkpt lat="45.31807" lon="4.16676">
        <ele>578.85</ele>
        <time>2015-09-15T15:40:30Z</time>
      </trkpt>
      <trkpt lat="45.31816" lon="4.16693">
        <ele>579.81</ele>
        <time>2015-09-15T15:40:42Z</time>
      </trkpt>
      <trkpt lat="45.31821" lon="4.16706">
        <ele>577.89</ele>
        <time>2015-09-15T15:40:52Z</time>
      </trkpt>
      <trkpt lat="45.31824" lon="4.16708">
        <ele>577.89</ele>
        <time>2015-09-15T15:40:54Z</time>
      </trkpt>
      <trkpt lat="45.31837" lon="4.1671">
        <ele>578.85</ele>
        <time>2015-09-15T15:41:01Z</time>
      </trkpt>
      <trkpt lat="45.3185" lon="4.16711">
        <ele>577.89</ele>
        <time>2015-09-15T15:41:07Z</time>
      </trkpt>
      <trkpt lat="45.31914" lon="4.16747">
        <ele>575.01</ele>
        <time>2015-09-15T15:41:19Z</time>
      </trkpt>
      <trkpt lat="45.31971" lon="4.16798">
        <ele>578.37</ele>
        <time>2015-09-15T15:41:29Z</time>
      </trkpt>
      <trkpt lat="45.32017" lon="4.16794">
        <ele>578.85</ele>
        <time>2015-09-15T15:41:37Z</time>
      </trkpt>
      <trkpt lat="45.32045" lon="4.16784">
        <ele>577.89</ele>
        <time>2015-09-15T15:41:42Z</time>
      </trkpt>
      <trkpt lat="45.32097" lon="4.16799">
        <ele>574.53</ele>
        <time>2015-09-15T15:41:50Z</time>
      </trkpt>
      <trkpt lat="45.32127" lon="4.16809">
        <ele>571.16</ele>
        <time>2015-09-15T15:41:59Z</time>
      </trkpt>
      <trkpt lat="45.3215" lon="4.16811">
        <ele>568.76</ele>
        <time>2015-09-15T15:42:15Z</time>
      </trkpt>
      <trkpt lat="45.32152" lon="4.16801">
        <ele>566.83</ele>
        <time>2015-09-15T15:42:20Z</time>
      </trkpt>
      <trkpt lat="45.32162" lon="4.16772">
        <ele>563.95</ele>
        <time>2015-09-15T15:42:36Z</time>
      </trkpt>
      <trkpt lat="45.32178" lon="4.16751">
        <ele>562.99</ele>
        <time>2015-09-15T15:42:50Z</time>
      </trkpt>
      <trkpt lat="45.32192" lon="4.16725">
        <ele>562.51</ele>
        <time>2015-09-15T15:43:05Z</time>
      </trkpt>
      <trkpt lat="45.32207" lon="4.16698">
        <ele>561.55</ele>
        <time>2015-09-15T15:43:21Z</time>
      </trkpt>
      <trkpt lat="45.32229" lon="4.16682">
        <ele>559.62</ele>
        <time>2015-09-15T15:43:38Z</time>
      </trkpt>
      <trkpt lat="45.32239" lon="4.16658">
        <ele>558.18</ele>
        <time>2015-09-15T15:43:53Z</time>
      </trkpt>
      <trkpt lat="45.32256" lon="4.1664">
        <ele>554.34</ele>
        <time>2015-09-15T15:44:09Z</time>
      </trkpt>
      <trkpt lat="45.32266" lon="4.16632">
        <ele>551.45</ele>
        <time>2015-09-15T15:44:19Z</time>
      </trkpt>
      <trkpt lat="45.32279" lon="4.16619">
        <ele>549.05</ele>
        <time>2015-09-15T15:44:31Z</time>
      </trkpt>
      <trkpt lat="45.32298" lon="4.16608">
        <ele>547.61</ele>
        <time>2015-09-15T15:44:47Z</time>
      </trkpt>
      <trkpt lat="45.32316" lon="4.16598">
        <ele>546.17</ele>
        <time>2015-09-15T15:45:02Z</time>
      </trkpt>
      <trkpt lat="45.32337" lon="4.16585">
        <ele>542.8</ele>
        <time>2015-09-15T15:45:18Z</time>
      </trkpt>
      <trkpt lat="45.32356" lon="4.16569">
        <ele>540.88</ele>
        <time>2015-09-15T15:45:34Z</time>
      </trkpt>
      <trkpt lat="45.32372" lon="4.16551">
        <ele>538.48</ele>
        <time>2015-09-15T15:45:49Z</time>
      </trkpt>
      <trkpt lat="45.32389" lon="4.1654">
        <ele>535.59</ele>
        <time>2015-09-15T15:46:03Z</time>
      </trkpt>
      <trkpt lat="45.32404" lon="4.16523">
        <ele>532.23</ele>
        <time>2015-09-15T15:46:18Z</time>
      </trkpt>
      <trkpt lat="45.3242" lon="4.16506">
        <ele>529.34</ele>
        <time>2015-09-15T15:46:33Z</time>
      </trkpt>
      <trkpt lat="45.32437" lon="4.16491">
        <ele>529.34</ele>
        <time>2015-09-15T15:46:48Z</time>
      </trkpt>
      <trkpt lat="45.32454" lon="4.16472">
        <ele>528.86</ele>
        <time>2015-09-15T15:47:04Z</time>
      </trkpt>
      <trkpt lat="45.32461" lon="4.16461">
        <ele>528.86</ele>
        <time>2015-09-15T15:47:19Z</time>
      </trkpt>
      <trkpt lat="45.32462" lon="4.1646">
        <ele>528.86</ele>
        <time>2015-09-15T15:47:23Z</time>
      </trkpt>
      <trkpt lat="45.32467" lon="4.16429">
        <ele>527.9</ele>
        <time>2015-09-15T15:47:40Z</time>
      </trkpt>
      <trkpt lat="45.32473" lon="4.164">
        <ele>527.42</ele>
        <time>2015-09-15T15:47:57Z</time>
      </trkpt>
      <trkpt lat="45.32475" lon="4.16387">
        <ele>526.94</ele>
        <time>2015-09-15T15:48:05Z</time>
      </trkpt>
      <trkpt lat="45.32476" lon="4.1638">
        <ele>526.46</ele>
        <time>2015-09-15T15:48:09Z</time>
      </trkpt>
      <trkpt lat="45.3248" lon="4.16353">
        <ele>524.54</ele>
        <time>2015-09-15T15:48:24Z</time>
      </trkpt>
      <trkpt lat="45.32485" lon="4.16327">
        <ele>522.13</ele>
        <time>2015-09-15T15:48:39Z</time>
      </trkpt>
      <trkpt lat="45.3249" lon="4.16299">
        <ele>520.21</ele>
        <time>2015-09-15T15:48:55Z</time>
      </trkpt>
      <trkpt lat="45.32502" lon="4.16278">
        <ele>518.77</ele>
        <time>2015-09-15T15:49:10Z</time>
      </trkpt>
      <trkpt lat="45.32504" lon="4.16273">
        <ele>518.29</ele>
        <time>2015-09-15T15:49:13Z</time>
      </trkpt>
      <trkpt lat="45.3251" lon="4.16265">
        <ele>515.88</ele>
        <time>2015-09-15T15:49:19Z</time>
      </trkpt>
      <trkpt lat="45.32522" lon="4.16241">
        <ele>513</ele>
        <time>2015-09-15T15:49:35Z</time>
      </trkpt>
      <trkpt lat="45.32525" lon="4.16235">
        <ele>512.52</ele>
        <time>2015-09-15T15:49:39Z</time>
      </trkpt>
      <trkpt lat="45.32537" lon="4.1621">
        <ele>510.12</ele>
        <time>2015-09-15T15:49:56Z</time>
      </trkpt>
      <trkpt lat="45.3254" lon="4.16203">
        <ele>509.16</ele>
        <time>2015-09-15T15:50:01Z</time>
      </trkpt>
      <trkpt lat="45.32553" lon="4.16179">
        <ele>506.27</ele>
        <time>2015-09-15T15:50:18Z</time>
      </trkpt>
      <trkpt lat="45.32567" lon="4.16157">
        <ele>503.87</ele>
        <time>2015-09-15T15:50:34Z</time>
      </trkpt>
      <trkpt lat="45.32582" lon="4.16136">
        <ele>501.95</ele>
        <time>2015-09-15T15:50:50Z</time>
      </trkpt>
      <trkpt lat="45.32593" lon="4.16115">
        <ele>500.02</ele>
        <time>2015-09-15T15:51:06Z</time>
      </trkpt>
      <trkpt lat="45.32594" lon="4.16114">
        <ele>500.02</ele>
        <time>2015-09-15T15:51:07Z</time>
      </trkpt>
      <trkpt lat="45.32598" lon="4.16112">
        <ele>499.06</ele>
        <time>2015-09-15T15:51:11Z</time>
      </trkpt>
      <trkpt lat="45.32602" lon="4.16108">
        <ele>498.58</ele>
        <time>2015-09-15T15:51:15Z</time>
      </trkpt>
      <trkpt lat="45.3262" lon="4.16093">
        <ele>494.74</ele>
        <time>2015-09-15T15:51:33Z</time>
      </trkpt>
      <trkpt lat="45.32621" lon="4.16087">
        <ele>493.77</ele>
        <time>2015-09-15T15:51:38Z</time>
      </trkpt>
      <trkpt lat="45.32615" lon="4.16065">
        <ele>492.81</ele>
        <time>2015-09-15T15:51:52Z</time>
      </trkpt>
      <trkpt lat="45.32609" lon="4.16041">
        <ele>492.33</ele>
        <time>2015-09-15T15:52:07Z</time>
      </trkpt>
      <trkpt lat="45.32609" lon="4.1602">
        <ele>489.93</ele>
        <time>2015-09-15T15:52:20Z</time>
      </trkpt>
      <trkpt lat="45.32601" lon="4.16002">
        <ele>487.05</ele>
        <time>2015-09-15T15:52:32Z</time>
      </trkpt>
      <trkpt lat="45.326" lon="4.15999">
        <ele>487.05</ele>
        <time>2015-09-15T15:52:34Z</time>
      </trkpt>
      <trkpt lat="45.32607" lon="4.15975">
        <ele>484.64</ele>
        <time>2015-09-15T15:52:48Z</time>
      </trkpt>
      <trkpt lat="45.32618" lon="4.15953">
        <ele>481.76</ele>
        <time>2015-09-15T15:53:01Z</time>
      </trkpt>
      <trkpt lat="45.32619" lon="4.1595">
        <ele>481.28</ele>
        <time>2015-09-15T15:53:03Z</time>
      </trkpt>
      <trkpt lat="45.32628" lon="4.15926">
        <ele>478.39</ele>
        <time>2015-09-15T15:53:19Z</time>
      </trkpt>
      <trkpt lat="45.3263" lon="4.15921">
        <ele>477.91</ele>
        <time>2015-09-15T15:53:23Z</time>
      </trkpt>
      <trkpt lat="45.32637" lon="4.15887">
        <ele>473.59</ele>
        <time>2015-09-15T15:53:41Z</time>
      </trkpt>
      <trkpt lat="45.32652" lon="4.1587">
        <ele>470.22</ele>
        <time>2015-09-15T15:53:55Z</time>
      </trkpt>
      <trkpt lat="45.32661" lon="4.15865">
        <ele>469.26</ele>
        <time>2015-09-15T15:54:02Z</time>
      </trkpt>
      <trkpt lat="45.32669" lon="4.15864">
        <ele>468.78</ele>
        <time>2015-09-15T15:54:08Z</time>
      </trkpt>
      <trkpt lat="45.32692" lon="4.15861">
        <ele>466.38</ele>
        <time>2015-09-15T15:54:24Z</time>
      </trkpt>
      <trkpt lat="45.32714" lon="4.15857">
        <ele>464.45</ele>
        <time>2015-09-15T15:54:40Z</time>
      </trkpt>
      <trkpt lat="45.32735" lon="4.15858">
        <ele>462.53</ele>
        <time>2015-09-15T15:54:55Z</time>
      </trkpt>
      <trkpt lat="45.32755" lon="4.15868">
        <ele>460.61</ele>
        <time>2015-09-15T15:55:11Z</time>
      </trkpt>
      <trkpt lat="45.32778" lon="4.15878">
        <ele>459.65</ele>
        <time>2015-09-15T15:55:28Z</time>
      </trkpt>
      <trkpt lat="45.32793" lon="4.15887">
        <ele>458.21</ele>
        <time>2015-09-15T15:55:40Z</time>
      </trkpt>
      <trkpt lat="45.32803" lon="4.15864">
        <ele>456.28</ele>
        <time>2015-09-15T15:55:55Z</time>
      </trkpt>
      <trkpt lat="45.32809" lon="4.15837">
        <ele>454.36</ele>
        <time>2015-09-15T15:56:09Z</time>
      </trkpt>
      <trkpt lat="45.32814" lon="4.15825">
        <ele>454.36</ele>
        <time>2015-09-15T15:56:16Z</time>
      </trkpt>
      <trkpt lat="45.32829" lon="4.15804">
        <ele>452.44</ele>
        <time>2015-09-15T15:56:31Z</time>
      </trkpt>
      <trkpt lat="45.32839" lon="4.15797">
        <ele>450.52</ele>
        <time>2015-09-15T15:56:45Z</time>
      </trkpt>
      <trkpt lat="45.32843" lon="4.15799">
        <ele>450.03</ele>
        <time>2015-09-15T15:56:49Z</time>
      </trkpt>
      <trkpt lat="45.3284" lon="4.15806">
        <ele>451.48</ele>
        <time>2015-09-15T15:56:54Z</time>
      </trkpt>
      <trkpt lat="45.32849" lon="4.15798">
        <ele>451</ele>
        <time>2015-09-15T15:57:02Z</time>
      </trkpt>
      <trkpt lat="45.32854" lon="4.15797">
        <ele>450.52</ele>
        <time>2015-09-15T15:57:07Z</time>
      </trkpt>
      <trkpt lat="45.32857" lon="4.15795">
        <ele>450.03</ele>
        <time>2015-09-15T15:57:11Z</time>
      </trkpt>
      <trkpt lat="45.32857" lon="4.15786">
        <ele>449.55</ele>
        <time>2015-09-15T15:57:16Z</time>
      </trkpt>
      <trkpt lat="45.32847" lon="4.15754">
        <ele>450.52</ele>
        <time>2015-09-15T15:57:32Z</time>
      </trkpt>
      <trkpt lat="45.32841" lon="4.1574">
        <ele>450.03</ele>
        <time>2015-09-15T15:57:44Z</time>
      </trkpt>
      <trkpt lat="45.3283" lon="4.15716">
        <ele>448.59</ele>
        <time>2015-09-15T15:57:58Z</time>
      </trkpt>
      <trkpt lat="45.3283" lon="4.15691">
        <ele>446.19</ele>
        <time>2015-09-15T15:58:13Z</time>
      </trkpt>
      <trkpt lat="45.32833" lon="4.1566">
        <ele>441.86</ele>
        <time>2015-09-15T15:58:27Z</time>
      </trkpt>
      <trkpt lat="45.32833" lon="4.15633">
        <ele>439.94</ele>
        <time>2015-09-15T15:58:43Z</time>
      </trkpt>
      <trkpt lat="45.32834" lon="4.15624">
        <ele>439.46</ele>
        <time>2015-09-15T15:59:00Z</time>
      </trkpt>
      <trkpt lat="45.32841" lon="4.15591">
        <ele>437.54</ele>
        <time>2015-09-15T15:59:17Z</time>
      </trkpt>
      <trkpt lat="45.32859" lon="4.15575">
        <ele>436.1</ele>
        <time>2015-09-15T15:59:31Z</time>
      </trkpt>
      <trkpt lat="45.32879" lon="4.15557">
        <ele>435.61</ele>
        <time>2015-09-15T15:59:47Z</time>
      </trkpt>
      <trkpt lat="45.32893" lon="4.15538">
        <ele>435.61</ele>
        <time>2015-09-15T16:00:01Z</time>
      </trkpt>
      <trkpt lat="45.32915" lon="4.15522">
        <ele>435.13</ele>
        <time>2015-09-15T16:00:18Z</time>
      </trkpt>
      <trkpt lat="45.32936" lon="4.15513">
        <ele>435.13</ele>
        <time>2015-09-15T16:00:34Z</time>
      </trkpt>
      <trkpt lat="45.32955" lon="4.15512">
        <ele>434.65</ele>
        <time>2015-09-15T16:00:53Z</time>
      </trkpt>
      <trkpt lat="45.32957" lon="4.15513">
        <ele>434.65</ele>
        <time>2015-09-15T16:01:16Z</time>
      </trkpt>
      <trkpt lat="45.32984" lon="4.15531">
        <ele>434.65</ele>
        <time>2015-09-15T16:01:35Z</time>
      </trkpt>
      <trkpt lat="45.33004" lon="4.15556">
        <ele>436.1</ele>
        <time>2015-09-15T16:01:55Z</time>
      </trkpt>
      <trkpt lat="45.33003" lon="4.15564">
        <ele>436.58</ele>
        <time>2015-09-15T16:02:00Z</time>
      </trkpt>
      <trkpt lat="45.32993" lon="4.15615">
        <ele>436.58</ele>
        <time>2015-09-15T16:02:09Z</time>
      </trkpt>
      <trkpt lat="45.32995" lon="4.15636">
        <ele>436.58</ele>
        <time>2015-09-15T16:02:11Z</time>
      </trkpt>
      <trkpt lat="45.32997" lon="4.15664">
        <ele>436.58</ele>
        <time>2015-09-15T16:02:14Z</time>
      </trkpt>
      <trkpt lat="45.32995" lon="4.1573">
        <ele>437.54</ele>
        <time>2015-09-15T16:02:25Z</time>
      </trkpt>
      <trkpt lat="45.3299" lon="4.15758">
        <ele>441.86</ele>
        <time>2015-09-15T16:02:40Z</time>
      </trkpt>
      <trkpt lat="45.32977" lon="4.15789">
        <ele>445.23</ele>
        <time>2015-09-15T16:02:57Z</time>
      </trkpt>
      <trkpt lat="45.32968" lon="4.15819">
        <ele>446.67</ele>
        <time>2015-09-15T16:03:13Z</time>
      </trkpt>
      <trkpt lat="45.32963" lon="4.15847">
        <ele>447.63</ele>
        <time>2015-09-15T16:03:29Z</time>
      </trkpt>
      <trkpt lat="45.32965" lon="4.15881">
        <ele>448.11</ele>
        <time>2015-09-15T16:03:47Z</time>
      </trkpt>
      <trkpt lat="45.32963" lon="4.15912">
        <ele>449.07</ele>
        <time>2015-09-15T16:04:05Z</time>
      </trkpt>
      <trkpt lat="45.32952" lon="4.15934">
        <ele>451</ele>
        <time>2015-09-15T16:04:22Z</time>
      </trkpt>
      <trkpt lat="45.32952" lon="4.15934">
        <ele>451</ele>
        <time>2015-09-15T16:04:36Z</time>
      </trkpt>
      <trkpt lat="45.32951" lon="4.15979">
        <ele>452.44</ele>
        <time>2015-09-15T16:04:48Z</time>
      </trkpt>
      <trkpt lat="45.32957" lon="4.16017">
        <ele>454.36</ele>
        <time>2015-09-15T16:04:54Z</time>
      </trkpt>
      <trkpt lat="45.3296" lon="4.16032">
        <ele>455.32</ele>
        <time>2015-09-15T16:04:56Z</time>
      </trkpt>
      <trkpt lat="45.32975" lon="4.1609">
        <ele>459.65</ele>
        <time>2015-09-15T16:05:04Z</time>
      </trkpt>
      <trkpt lat="45.32974" lon="4.16151">
        <ele>463.01</ele>
        <time>2015-09-15T16:05:12Z</time>
      </trkpt>
      <trkpt lat="45.32984" lon="4.16185">
        <ele>464.93</ele>
        <time>2015-09-15T16:05:17Z</time>
      </trkpt>
      <trkpt lat="45.33017" lon="4.16237">
        <ele>470.22</ele>
        <time>2015-09-15T16:05:26Z</time>
      </trkpt>
      <trkpt lat="45.33028" lon="4.16259">
        <ele>472.63</ele>
        <time>2015-09-15T16:05:29Z</time>
      </trkpt>
      <trkpt lat="45.33037" lon="4.16296">
        <ele>475.51</ele>
        <time>2015-09-15T16:05:33Z</time>
      </trkpt>
      <trkpt lat="45.3304" lon="4.16404">
        <ele>485.6</ele>
        <time>2015-09-15T16:05:46Z</time>
      </trkpt>
      <trkpt lat="45.3304" lon="4.16428">
        <ele>487.53</ele>
        <time>2015-09-15T16:05:52Z</time>
      </trkpt>
      <trkpt lat="45.33041" lon="4.16441">
        <ele>488.49</ele>
        <time>2015-09-15T16:05:54Z</time>
      </trkpt>
      <trkpt lat="45.3304" lon="4.16494">
        <ele>494.26</ele>
        <time>2015-09-15T16:06:01Z</time>
      </trkpt>
      <trkpt lat="45.33039" lon="4.16508">
        <ele>496.18</ele>
        <time>2015-09-15T16:06:03Z</time>
      </trkpt>
      <trkpt lat="45.33044" lon="4.16542">
        <ele>500.98</ele>
        <time>2015-09-15T16:06:09Z</time>
      </trkpt>
      <trkpt lat="45.3305" lon="4.16561">
        <ele>506.27</ele>
        <time>2015-09-15T16:06:19Z</time>
      </trkpt>
      <trkpt lat="45.33046" lon="4.16561">
        <ele>505.79</ele>
        <time>2015-09-15T16:06:33Z</time>
      </trkpt>
      <trkpt lat="45.33045" lon="4.16563">
        <ele>505.79</ele>
        <time>2015-09-15T16:06:36Z</time>
      </trkpt>
      <trkpt lat="45.33045" lon="4.16571">
        <ele>506.27</ele>
        <time>2015-09-15T16:06:40Z</time>
      </trkpt>
      <trkpt lat="45.33042" lon="4.16575">
        <ele>506.75</ele>
        <time>2015-09-15T16:06:44Z</time>
      </trkpt>
      <trkpt lat="45.33034" lon="4.16584">
        <ele>507.71</ele>
        <time>2015-09-15T16:06:53Z</time>
      </trkpt>
      <trkpt lat="45.33016" lon="4.16606">
        <ele>510.12</ele>
        <time>2015-09-15T16:07:12Z</time>
      </trkpt>
      <trkpt lat="45.33002" lon="4.1664">
        <ele>511.56</ele>
        <time>2015-09-15T16:07:29Z</time>
      </trkpt>
      <trkpt lat="45.33003" lon="4.16675">
        <ele>514.44</ele>
        <time>2015-09-15T16:07:34Z</time>
      </trkpt>
      <trkpt lat="45.33014" lon="4.16761">
        <ele>524.54</ele>
        <time>2015-09-15T16:07:46Z</time>
      </trkpt>
      <trkpt lat="45.33014" lon="4.16816">
        <ele>534.15</ele>
        <time>2015-09-15T16:07:58Z</time>
      </trkpt>
      <trkpt lat="45.33018" lon="4.16865">
        <ele>536.55</ele>
        <time>2015-09-15T16:08:06Z</time>
      </trkpt>
      <trkpt lat="45.33016" lon="4.16902">
        <ele>539.44</ele>
        <time>2015-09-15T16:08:16Z</time>
      </trkpt>
      <trkpt lat="45.33017" lon="4.16937">
        <ele>539.44</ele>
        <time>2015-09-15T16:08:34Z</time>
      </trkpt>
      <trkpt lat="45.33015" lon="4.16999">
        <ele>541.36</ele>
        <time>2015-09-15T16:08:43Z</time>
      </trkpt>
      <trkpt lat="45.32999" lon="4.1712">
        <ele>546.17</ele>
        <time>2015-09-15T16:08:57Z</time>
      </trkpt>
      <trkpt lat="45.32958" lon="4.1725">
        <ele>547.61</ele>
        <time>2015-09-15T16:09:11Z</time>
      </trkpt>
      <trkpt lat="45.32919" lon="4.17426">
        <ele>549.53</ele>
        <time>2015-09-15T16:09:30Z</time>
      </trkpt>
      <trkpt lat="45.3288" lon="4.17583">
        <ele>549.05</ele>
        <time>2015-09-15T16:09:48Z</time>
      </trkpt>
      <trkpt lat="45.32831" lon="4.17694">
        <ele>549.53</ele>
        <time>2015-09-15T16:10:05Z</time>
      </trkpt>
      <trkpt lat="45.32779" lon="4.17797">
        <ele>549.53</ele>
        <time>2015-09-15T16:10:22Z</time>
      </trkpt>
      <trkpt lat="45.32724" lon="4.17889">
        <ele>549.05</ele>
        <time>2015-09-15T16:10:36Z</time>
      </trkpt>
      <trkpt lat="45.32694" lon="4.17963">
        <ele>548.09</ele>
        <time>2015-09-15T16:10:46Z</time>
      </trkpt>
      <trkpt lat="45.32663" lon="4.18013">
        <ele>548.09</ele>
        <time>2015-09-15T16:10:54Z</time>
      </trkpt>
      <trkpt lat="45.32652" lon="4.18048">
        <ele>549.05</ele>
        <time>2015-09-15T16:10:59Z</time>
      </trkpt>
      <trkpt lat="45.32647" lon="4.18079">
        <ele>551.93</ele>
        <time>2015-09-15T16:11:09Z</time>
      </trkpt>
      <trkpt lat="45.32646" lon="4.18083">
        <ele>552.9</ele>
        <time>2015-09-15T16:11:13Z</time>
      </trkpt>
      <trkpt lat="45.32635" lon="4.18118">
        <ele>558.66</ele>
        <time>2015-09-15T16:11:37Z</time>
      </trkpt>
      <trkpt lat="45.32625" lon="4.18155">
        <ele>558.66</ele>
        <time>2015-09-15T16:11:59Z</time>
      </trkpt>
      <trkpt lat="45.32614" lon="4.18169">
        <ele>561.55</ele>
        <time>2015-09-15T16:12:17Z</time>
      </trkpt>
      <trkpt lat="45.32614" lon="4.18168">
        <ele>561.07</ele>
        <time>2015-09-15T16:12:38Z</time>
      </trkpt>
      <trkpt lat="45.32614" lon="4.18168">
        <ele>560.59</ele>
        <time>2015-09-15T16:13:00Z</time>
      </trkpt>
      <trkpt lat="45.32614" lon="4.18167">
        <ele>560.59</ele>
        <time>2015-09-15T16:13:25Z</time>
      </trkpt>
      <trkpt lat="45.32609" lon="4.1817">
        <ele>559.14</ele>
        <time>2015-09-15T16:13:40Z</time>
      </trkpt>
      <trkpt lat="45.32605" lon="4.18174">
        <ele>559.14</ele>
        <time>2015-09-15T16:13:52Z</time>
      </trkpt>
    </trkseg>
  </trk>
</gpx>